Observation data for Happy on 07/11/2020      Previous  Date  Next       Current Mesonet Observations  Soil Data  Daily Summary Page  Observations in Plain Language
KHA2 110500Z 15013KT 28/19 A3008 RMK A01 T02810189  RH  058%=      5-min Rain = 0
KHA2 110501Z 15012KT 28/19 A3008 RMK A01 T02810189  RH  058%=      5-min Rain = 0
KHA2 110502Z 15011KT 28/19 A3008 RMK A01 T02800190  RH  058%=      5-min Rain = 0
KHA2 110503Z 15012KT 28/19 A3008 RMK A01 T02790189  RH  058%=      5-min Rain = 0
KHA2 110504Z 15011KT 28/19 A3008 RMK A01 T02790189  RH  058%=      5-min Rain = 0
KHA2 110505Z 15011KT 28/19 A3008 RMK A01 T02790190  RH  058%=      5-min Rain = 0
KHA2 110506Z 15012KT 28/19 A3008 RMK A01 T02780190  RH  059%=      5-min Rain = 0
KHA2 110507Z 15011KT 28/19 A3008 RMK A01 T02780190  RH  059%=      5-min Rain = 0
KHA2 110508Z 15012KT 28/19 A3008 RMK A01 T02780190  RH  059%=      5-min Rain = 0
KHA2 110509Z 15012KT 28/19 A3008 RMK A01 T02770190  RH  059%=      5-min Rain = 0
KHA2 110510Z 15011KT 28/19 A3008 RMK A01 T02770190  RH  059%=      5-min Rain = 0
KHA2 110511Z 15011KT 28/19 A3008 RMK A01 T02770190  RH  059%=      5-min Rain = 0
KHA2 110512Z 15011KT 28/19 A3008 RMK A01 T02760190  RH  059%=      5-min Rain = 0
KHA2 110513Z 15011KT 28/19 A3008 RMK A01 T02760190  RH  059%=      5-min Rain = 0
KHA2 110514Z 15011KT 28/19 A3008 RMK A01 T02750190  RH  060%=      5-min Rain = 0
KHA2 110515Z 14011KT 28/19 A3009 RMK A01 T02750190  RH  060%=      5-min Rain = 0
KHA2 110516Z 15010KT 27/19 A3009 RMK A01 T02740190  RH  060%=      5-min Rain = 0
KHA2 110517Z 15010KT 27/19 A3009 RMK A01 T02730190  RH  060%=      5-min Rain = 0
KHA2 110518Z 15010KT 27/19 A3009 RMK A01 T02730190  RH  060%=      5-min Rain = 0
KHA2 110519Z 15009KT 27/19 A3009 RMK A01 T02720190  RH  061%=      5-min Rain = 0
KHA2 110520Z 15010KT 27/19 A3009 RMK A01 T02710189  RH  061%=      5-min Rain = 0
KHA2 110521Z 15009KT 27/19 A3009 RMK A01 T02700189  RH  061%=      5-min Rain = 0
KHA2 110522Z 15009KT 27/19 A3009 RMK A01 T02700189  RH  061%=      5-min Rain = 0
KHA2 110523Z 15009KT 27/19 A3009 RMK A01 T02700190  RH  062%=      5-min Rain = 0
KHA2 110524Z 15009KT 27/19 A3009 RMK A01 T02690190  RH  062%=      5-min Rain = 0
KHA2 110525Z 15009KT 27/19 A3009 RMK A01 T02690190  RH  062%=      5-min Rain = 0
KHA2 110526Z 15010KT 27/19 A3009 RMK A01 T02690190  RH  062%=      5-min Rain = 0
KHA2 110527Z 15010KT 27/19 A3009 RMK A01 T02690190  RH  062%=      5-min Rain = 0
KHA2 110528Z 15009KT 27/19 A3009 RMK A01 T02680190  RH  062%=      5-min Rain = 0
KHA2 110529Z 15010KT 27/19 A3009 RMK A01 T02680189  RH  062%=      5-min Rain = 0
KHA2 110530Z 15009KT 27/19 A3009 RMK A01 T02670189  RH  062%=      5-min Rain = 0
KHA2 110531Z 15010KT 27/19 A3009 RMK A01 T02670189  RH  063%=      5-min Rain = 0
KHA2 110532Z 15009KT 27/19 A3009 RMK A01 T02660189  RH  063%=      5-min Rain = 0
KHA2 110533Z 14009KT 27/19 A3009 RMK A01 T02660189  RH  063%=      5-min Rain = 0
KHA2 110534Z 14009KT 27/19 A3009 RMK A01 T02650189  RH  063%=      5-min Rain = 0
KHA2 110535Z 14009KT 27/19 A3009 RMK A01 T02650189  RH  063%=      5-min Rain = 0
KHA2 110536Z 14009KT 27/19 A3009 RMK A01 T02650189  RH  063%=      5-min Rain = 0
KHA2 110537Z 14009KT 26/19 A3009 RMK A01 T02640189  RH  063%=      5-min Rain = 0
KHA2 110538Z 14009KT 26/19 A3009 RMK A01 T02640189  RH  064%=      5-min Rain = 0
KHA2 110539Z 14008KT 26/19 A3009 RMK A01 T02630189  RH  064%=      5-min Rain = 0
KHA2 110540Z 15009KT 26/19 A3009 RMK A01 T02630189  RH  064%=      5-min Rain = 0
KHA2 110541Z 15008KT 26/19 A3009 RMK A01 T02630189  RH  064%=      5-min Rain = 0
KHA2 110542Z 14008KT 26/19 A3009 RMK A01 T02630189  RH  064%=      5-min Rain = 0
KHA2 110543Z 14008KT 26/19 A3009 RMK A01 T02620189  RH  064%=      5-min Rain = 0
KHA2 110544Z 14008KT 26/19 A3009 RMK A01 T02610189  RH  064%=      5-min Rain = 0
KHA2 110545Z 14008KT 26/19 A3009 RMK A01 T02610189  RH  064%=      5-min Rain = 0
KHA2 110546Z 14009KT 26/19 A3009 RMK A01 T02610189  RH  065%=      5-min Rain = 0
KHA2 110547Z 15009KT 26/19 A3009 RMK A01 T02600189  RH  065%=      5-min Rain = 0
KHA2 110548Z 15009KT 26/19 A3009 RMK A01 T02610189  RH  065%=      5-min Rain = 0
KHA2 110549Z 15008KT 26/19 A3009 RMK A01 T02600189  RH  065%=      5-min Rain = 0
KHA2 110550Z 14008KT 26/19 A3009 RMK A01 T02600189  RH  065%=      5-min Rain = 0
KHA2 110551Z 14008KT 26/19 A3009 RMK A01 T02590189  RH  065%=      5-min Rain = 0
KHA2 110552Z 15008KT 26/19 A3009 RMK A01 T02590189  RH  065%=      5-min Rain = 0
KHA2 110553Z 14008KT 26/19 A3009 RMK A01 T02580188  RH  065%=      5-min Rain = 0
KHA2 110554Z 14008KT 26/19 A3009 RMK A01 T02580188  RH  065%=      5-min Rain = 0
KHA2 110555Z 15008KT 26/19 A3009 RMK A01 T02570188  RH  066%=      5-min Rain = 0
KHA2 110556Z 15008KT 26/19 A3009 RMK A01 T02570188  RH  066%=      5-min Rain = 0
KHA2 110557Z 15008KT 26/19 A3009 RMK A01 T02570188  RH  066%=      5-min Rain = 0
KHA2 110558Z 15008KT 26/19 A3009 RMK A01 T02570188  RH  066%=      5-min Rain = 0
KHA2 110559Z 15008KT 26/19 A3009 RMK A01 T02570188  RH  066%=      5-min Rain = 0
KHA2 110600Z 15008KT 26/19 A3009 RMK A01 T02560188  RH  066%=      5-min Rain = 0
KHA2 110601Z 15008KT 26/19 A3009 RMK A01 T02550188  RH  066%=      5-min Rain = 0
KHA2 110602Z 15007KT 26/19 A3009 RMK A01 T02550188  RH  066%=      5-min Rain = 0
KHA2 110603Z 15008KT 25/19 A3009 RMK A01 T02540188  RH  067%=      5-min Rain = 0
KHA2 110604Z 14007KT 25/19 A3009 RMK A01 T02540188  RH  067%=      5-min Rain = 0
KHA2 110605Z 14008KT 25/19 A3009 RMK A01 T02540188  RH  067%=      5-min Rain = 0
KHA2 110606Z 14008KT 25/19 A3009 RMK A01 T02530188  RH  067%=      5-min Rain = 0
KHA2 110607Z 14008KT 25/19 A3009 RMK A01 T02520188  RH  067%=      5-min Rain = 0
KHA2 110608Z 14008KT 25/19 A3009 RMK A01 T02510188  RH  068%=      5-min Rain = 0
KHA2 110609Z 14008KT 25/19 A3009 RMK A01 T02510188  RH  068%=      5-min Rain = 0
KHA2 110610Z 14007KT 25/19 A3009 RMK A01 T02500188  RH  068%=      5-min Rain = 0
KHA2 110611Z 14007KT 25/19 A3009 RMK A01 T02490188  RH  069%=      5-min Rain = 0
KHA2 110612Z 14007KT 25/19 A3009 RMK A01 T02490188  RH  069%=      5-min Rain = 0
KHA2 110613Z 14007KT 25/19 A3009 RMK A01 T02480187  RH  069%=      5-min Rain = 0
KHA2 110614Z 14007KT 25/19 A3009 RMK A01 T02470187  RH  069%=      5-min Rain = 0
KHA2 110615Z 14006KT 25/19 A3009 RMK A01 T02470187  RH  070%=      5-min Rain = 0
KHA2 110616Z 14006KT 25/19 A3009 RMK A01 T02460187  RH  070%=      5-min Rain = 0
KHA2 110617Z 14006KT 25/19 A3009 RMK A01 T02450187  RH  070%=      5-min Rain = 0
KHA2 110618Z 14006KT 24/19 A3009 RMK A01 T02440187  RH  070%=      5-min Rain = 0
KHA2 110619Z 14006KT 24/19 A3009 RMK A01 T02430186  RH  071%=      5-min Rain = 0
KHA2 110620Z 14006KT 24/19 A3009 RMK A01 T02430186  RH  071%=      5-min Rain = 0
KHA2 110621Z 14006KT 24/19 A3009 RMK A01 T02420186  RH  071%=      5-min Rain = 0
KHA2 110622Z 14006KT 24/19 A3009 RMK A01 T02420186  RH  071%=      5-min Rain = 0
KHA2 110623Z 14006KT 24/19 A3009 RMK A01 T02410186  RH  071%=      5-min Rain = 0
KHA2 110624Z 14006KT 24/19 A3009 RMK A01 T02410186  RH  071%=      5-min Rain = 0
KHA2 110625Z 14006KT 24/19 A3009 RMK A01 T02410186  RH  071%=      5-min Rain = 0
KHA2 110626Z 14006KT 24/19 A3009 RMK A01 T02400185  RH  072%=      5-min Rain = 0
KHA2 110627Z 14006KT 24/19 A3009 RMK A01 T02390185  RH  072%=      5-min Rain = 0
KHA2 110628Z 14006KT 24/19 A3009 RMK A01 T02380185  RH  072%=      5-min Rain = 0
KHA2 110629Z 14006KT 24/19 A3009 RMK A01 T02380185  RH  072%=      5-min Rain = 0
KHA2 110630Z 14006KT 24/19 A3009 RMK A01 T02370185  RH  073%=      5-min Rain = 0
KHA2 110631Z 14006KT 24/19 A3009 RMK A01 T02370185  RH  073%=      5-min Rain = 0
KHA2 110632Z 14006KT 24/19 A3009 RMK A01 T02370185  RH  073%=      5-min Rain = 0
KHA2 110633Z 14006KT 24/19 A3009 RMK A01 T02360185  RH  073%=      5-min Rain = 0
KHA2 110634Z 13006KT 24/19 A3009 RMK A01 T02350185  RH  073%=      5-min Rain = 0
KHA2 110635Z 13006KT 23/19 A3009 RMK A01 T02340185  RH  074%=      5-min Rain = 0
KHA2 110636Z 13006KT 23/19 A3009 RMK A01 T02340185  RH  074%=      5-min Rain = 0
KHA2 110637Z 13006KT 23/18 A3009 RMK A01 T02330184  RH  074%=      5-min Rain = 0
KHA2 110638Z 14006KT 23/18 A3009 RMK A01 T02320184  RH  074%=      5-min Rain = 0
KHA2 110639Z 14006KT 23/18 A3009 RMK A01 T02320184  RH  075%=      5-min Rain = 0
KHA2 110640Z 14006KT 23/18 A3009 RMK A01 T02310184  RH  075%=      5-min Rain = 0
KHA2 110641Z 14006KT 23/18 A3009 RMK A01 T02310184  RH  075%=      5-min Rain = 0
KHA2 110642Z 14006KT 23/18 A3009 RMK A01 T02310184  RH  075%=      5-min Rain = 0
KHA2 110643Z 14006KT 23/18 A3009 RMK A01 T02310184  RH  075%=      5-min Rain = 0
KHA2 110644Z 14005KT 23/18 A3009 RMK A01 T02300184  RH  075%=      5-min Rain = 0
KHA2 110645Z 15005KT 23/18 A3009 RMK A01 T02300184  RH  075%=      5-min Rain = 0
KHA2 110646Z 15005KT 23/18 A3009 RMK A01 T02300184  RH  075%=      5-min Rain = 0
KHA2 110647Z 15005KT 23/18 A3009 RMK A01 T02300184  RH  075%=      5-min Rain = 0
KHA2 110648Z 15005KT 23/18 A3009 RMK A01 T02300184  RH  075%=      5-min Rain = 0
KHA2 110649Z 15005KT 23/18 A3009 RMK A01 T02300184  RH  075%=      5-min Rain = 0
KHA2 110650Z 15005KT 23/18 A3009 RMK A01 T02300184  RH  075%=      5-min Rain = 0
KHA2 110651Z 15005KT 23/18 A3009 RMK A01 T02300184  RH  075%=      5-min Rain = 0
KHA2 110652Z 15005KT 23/18 A3009 RMK A01 T02300184  RH  075%=      5-min Rain = 0
KHA2 110653Z 15005KT 23/18 A3009 RMK A01 T02300184  RH  075%=      5-min Rain = 0
KHA2 110654Z 15005KT 23/18 A3009 RMK A01 T02300184  RH  075%=      5-min Rain = 0
KHA2 110655Z 15005KT 23/18 A3009 RMK A01 T02300184  RH  075%=      5-min Rain = 0
KHA2 110656Z 15005KT 23/18 A3009 RMK A01 T02300184  RH  075%=      5-min Rain = 0
KHA2 110657Z 14005KT 23/19 A3009 RMK A01 T02300185  RH  076%=      5-min Rain = 0
KHA2 110658Z 14005KT 23/18 A3009 RMK A01 T02290184  RH  076%=      5-min Rain = 0
KHA2 110659Z 14005KT 23/18 A3009 RMK A01 T02290184  RH  076%=      5-min Rain = 0
KHA2 110700Z 14005KT 23/18 A3009 RMK A01 T02290184  RH  076%=      5-min Rain = 0
KHA2 110701Z 14005KT 23/18 A3009 RMK A01 T02280184  RH  076%=      5-min Rain = 0
KHA2 110702Z 13005KT 23/18 A3009 RMK A01 T02280184  RH  076%=      5-min Rain = 0
KHA2 110703Z 13005KT 23/18 A3009 RMK A01 T02280184  RH  076%=      5-min Rain = 0
KHA2 110704Z 13005KT 23/18 A3009 RMK A01 T02270184  RH  076%=      5-min Rain = 0
KHA2 110705Z 14005KT 23/18 A3009 RMK A01 T02270184  RH  077%=      5-min Rain = 0
KHA2 110706Z 13005KT 23/18 A3009 RMK A01 T02270184  RH  077%=      5-min Rain = 0
KHA2 110707Z 14005KT 23/19 A3009 RMK A01 T02270185  RH  077%=      5-min Rain = 0
KHA2 110708Z 14005KT 23/19 A3009 RMK A01 T02270185  RH  077%=      5-min Rain = 0
KHA2 110709Z 14005KT 23/18 A3009 RMK A01 T02270184  RH  077%=      5-min Rain = 0
KHA2 110710Z 14006KT 23/18 A3008 RMK A01 T02270184  RH  077%=      5-min Rain = 0
KHA2 110711Z 13006KT 23/18 A3008 RMK A01 T02270183  RH  076%=      5-min Rain = 0
KHA2 110712Z 13006KT 23/18 A3008 RMK A01 T02270183  RH  076%=      5-min Rain = 0
KHA2 110713Z 13006KT 23/18 A3008 RMK A01 T02270183  RH  076%=      5-min Rain = 0
KHA2 110714Z 14006KT 23/18 A3008 RMK A01 T02260183  RH  077%=      5-min Rain = 0
KHA2 110715Z 14006KT 23/18 A3008 RMK A01 T02260183  RH  077%=      5-min Rain = 0
KHA2 110716Z 14006KT 23/18 A3008 RMK A01 T02260183  RH  077%=      5-min Rain = 0
KHA2 110717Z 14005KT 23/18 A3008 RMK A01 T02260183  RH  077%=      5-min Rain = 0
KHA2 110718Z 14006KT 23/18 A3008 RMK A01 T02260183  RH  077%=      5-min Rain = 0
KHA2 110719Z 14006KT 23/18 A3008 RMK A01 T02250183  RH  077%=      5-min Rain = 0
KHA2 110720Z 14006KT 23/18 A3008 RMK A01 T02250183  RH  077%=      5-min Rain = 0
KHA2 110721Z 14005KT 23/18 A3008 RMK A01 T02250183  RH  077%=      5-min Rain = 0
KHA2 110722Z 14005KT 22/18 A3008 RMK A01 T02240183  RH  077%=      5-min Rain = 0
KHA2 110723Z 14005KT 22/18 A3008 RMK A01 T02240182  RH  077%=      5-min Rain = 0
KHA2 110724Z 14005KT 22/18 A3008 RMK A01 T02240183  RH  078%=      5-min Rain = 0
KHA2 110725Z 13005KT 22/18 A3009 RMK A01 T02240183  RH  078%=      5-min Rain = 0
KHA2 110726Z 13005KT 22/18 A3009 RMK A01 T02230183  RH  078%=      5-min Rain = 0
KHA2 110727Z 13005KT 22/18 A3009 RMK A01 T02230183  RH  078%=      5-min Rain = 0
KHA2 110728Z 13006KT 22/18 A3009 RMK A01 T02230183  RH  078%=      5-min Rain = 0
KHA2 110729Z 13005KT 22/18 A3009 RMK A01 T02230183  RH  078%=      5-min Rain = 0
KHA2 110730Z 13006KT 22/18 A3009 RMK A01 T02230183  RH  078%=      5-min Rain = 0
KHA2 110731Z 13005KT 22/18 A3009 RMK A01 T02230183  RH  078%=      5-min Rain = 0
KHA2 110732Z 13005KT 22/18 A3009 RMK A01 T02230183  RH  078%=      5-min Rain = 0
KHA2 110733Z 13005KT 22/18 A3009 RMK A01 T02230183  RH  078%=      5-min Rain = 0
KHA2 110734Z 13005KT 22/18 A3009 RMK A01 T02230183  RH  078%=      5-min Rain = 0
KHA2 110735Z 13005KT 22/18 A3009 RMK A01 T02230184  RH  078%=      5-min Rain = 0
KHA2 110736Z 13005KT 22/18 A3009 RMK A01 T02230183  RH  078%=      5-min Rain = 0
KHA2 110737Z 13005KT 22/18 A3009 RMK A01 T02240183  RH  078%=      5-min Rain = 0
KHA2 110738Z 13005KT 22/18 A3009 RMK A01 T02240184  RH  078%=      5-min Rain = 0
KHA2 110739Z 13005KT 22/18 A3009 RMK A01 T02240184  RH  078%=      5-min Rain = 0
KHA2 110740Z 13005KT 23/18 A3009 RMK A01 T02250184  RH  078%=      5-min Rain = 0
KHA2 110741Z 13005KT 23/18 A3009 RMK A01 T02250184  RH  078%=      5-min Rain = 0
KHA2 110742Z 13005KT 23/18 A3009 RMK A01 T02250184  RH  077%=      5-min Rain = 0
KHA2 110743Z 14005KT 23/18 A3009 RMK A01 T02250184  RH  077%=      5-min Rain = 0
KHA2 110744Z 13005KT 23/18 A3009 RMK A01 T02250184  RH  077%=      5-min Rain = 0
KHA2 110745Z 14005KT 23/18 A3009 RMK A01 T02250184  RH  077%=      5-min Rain = 0
KHA2 110746Z 14005KT 23/18 A3009 RMK A01 T02260184  RH  077%=      5-min Rain = 0
KHA2 110747Z 14005KT 23/18 A3009 RMK A01 T02250184  RH  077%=      5-min Rain = 0
KHA2 110748Z 15005KT 23/18 A3009 RMK A01 T02250183  RH  077%=      5-min Rain = 0
KHA2 110749Z 15005KT 23/18 A3009 RMK A01 T02250183  RH  077%=      5-min Rain = 0
KHA2 110750Z 15005KT 23/18 A3009 RMK A01 T02250184  RH  077%=      5-min Rain = 0
KHA2 110751Z 15005KT 23/18 A3009 RMK A01 T02250183  RH  077%=      5-min Rain = 0
KHA2 110752Z 15005KT 23/18 A3008 RMK A01 T02250183  RH  077%=      5-min Rain = 0
KHA2 110753Z 15005KT 23/18 A3008 RMK A01 T02250183  RH  077%=      5-min Rain = 0
KHA2 110754Z 16005KT 22/18 A3009 RMK A01 T02240183  RH  077%=      5-min Rain = 0
KHA2 110755Z 16005KT 23/18 A3009 RMK A01 T02250183  RH  077%=      5-min Rain = 0
KHA2 110756Z 16005KT 23/18 A3009 RMK A01 T02250183  RH  077%=      5-min Rain = 0
KHA2 110757Z 16005KT 22/18 A3009 RMK A01 T02240183  RH  077%=      5-min Rain = 0
KHA2 110758Z 16005KT 22/18 A3009 RMK A01 T02240183  RH  077%=      5-min Rain = 0
KHA2 110759Z 16005KT 22/18 A3009 RMK A01 T02240183  RH  077%=      5-min Rain = 0
KHA2 110800Z 16004KT 22/18 A3009 RMK A01 T02240183  RH  077%=      5-min Rain = 0
KHA2 110801Z 16004KT 22/18 A3009 RMK A01 T02240183  RH  077%=      5-min Rain = 0
KHA2 110802Z 15004KT 22/18 A3009 RMK A01 T02230182  RH  078%=      5-min Rain = 0
KHA2 110803Z 16004KT 22/18 A3009 RMK A01 T02230182  RH  078%=      5-min Rain = 0
KHA2 110804Z 15004KT 22/18 A3009 RMK A01 T02230182  RH  078%=      5-min Rain = 0
KHA2 110805Z 15004KT 22/18 A3009 RMK A01 T02230182  RH  078%=      5-min Rain = 0
KHA2 110806Z 15004KT 22/18 A3009 RMK A01 T02230182  RH  078%=      5-min Rain = 0
KHA2 110807Z 15004KT 22/18 A3009 RMK A01 T02220182  RH  078%=      5-min Rain = 0
KHA2 110808Z 15004KT 22/18 A3009 RMK A01 T02230183  RH  078%=      5-min Rain = 0
KHA2 110809Z 14004KT 22/18 A3009 RMK A01 T02220182  RH  078%=      5-min Rain = 0
KHA2 110810Z 14004KT 22/18 A3009 RMK A01 T02220182  RH  078%=      5-min Rain = 0
KHA2 110811Z 14004KT 22/18 A3009 RMK A01 T02220182  RH  078%=      5-min Rain = 0
KHA2 110812Z 14004KT 22/18 A3009 RMK A01 T02220182  RH  078%=      5-min Rain = 0
KHA2 110813Z 14004KT 22/18 A3009 RMK A01 T02220182  RH  078%=      5-min Rain = 0
KHA2 110814Z 14004KT 22/18 A3009 RMK A01 T02220182  RH  078%=      5-min Rain = 0
KHA2 110815Z 14004KT 22/18 A3009 RMK A01 T02220182  RH  078%=      5-min Rain = 0
KHA2 110816Z 14004KT 22/18 A3009 RMK A01 T02210182  RH  078%=      5-min Rain = 0
KHA2 110817Z 14004KT 22/18 A3009 RMK A01 T02220183  RH  078%=      5-min Rain = 0
KHA2 110818Z 14003KT 22/18 A3009 RMK A01 T02210182  RH  079%=      5-min Rain = 0
KHA2 110819Z 15003KT 22/18 A3009 RMK A01 T02210183  RH  079%=      5-min Rain = 0
KHA2 110820Z 15003KT 22/18 A3009 RMK A01 T02210182  RH  079%=      5-min Rain = 0
KHA2 110821Z 15003KT 22/18 A3009 RMK A01 T02210182  RH  079%=      5-min Rain = 0
KHA2 110822Z 15003KT 22/18 A3009 RMK A01 T02210182  RH  079%=      5-min Rain = 0
KHA2 110823Z 15003KT 22/18 A3009 RMK A01 T02210182  RH  079%=      5-min Rain = 0
KHA2 110824Z 16003KT 22/18 A3009 RMK A01 T02210182  RH  079%=      5-min Rain = 0
KHA2 110825Z 16004KT 22/18 A3009 RMK A01 T02210182  RH  078%=      5-min Rain = 0
KHA2 110826Z 16004KT 22/18 A3009 RMK A01 T02220182  RH  078%=      5-min Rain = 0
KHA2 110827Z 16004KT 22/18 A3009 RMK A01 T02220182  RH  078%=      5-min Rain = 0
KHA2 110828Z 17004KT 22/18 A3009 RMK A01 T02230182  RH  078%=      5-min Rain = 0
KHA2 110829Z 17004KT 22/18 A3009 RMK A01 T02230182  RH  078%=      5-min Rain = 0
KHA2 110830Z 17004KT 22/18 A3009 RMK A01 T02240182  RH  077%=      5-min Rain = 0
KHA2 110831Z 17005KT 22/18 A3008 RMK A01 T02230182  RH  077%=      5-min Rain = 0
KHA2 110832Z 17005KT 22/18 A3008 RMK A01 T02230182  RH  077%=      5-min Rain = 0
KHA2 110833Z 17005KT 22/18 A3008 RMK A01 T02240182  RH  077%=      5-min Rain = 0
KHA2 110834Z 17005KT 22/18 A3008 RMK A01 T02240182  RH  077%=      5-min Rain = 0
KHA2 110835Z 17005KT 22/18 A3008 RMK A01 T02240182  RH  077%=      5-min Rain = 0
KHA2 110836Z 18005KT 22/18 A3008 RMK A01 T02240182  RH  077%=      5-min Rain = 0
KHA2 110837Z 18005KT 22/18 A3008 RMK A01 T02230182  RH  077%=      5-min Rain = 0
KHA2 110838Z 18005KT 22/18 A3008 RMK A01 T02230182  RH  078%=      5-min Rain = 0
KHA2 110839Z 18005KT 22/18 A3008 RMK A01 T02230182  RH  078%=      5-min Rain = 0
KHA2 110840Z 18005KT 22/18 A3008 RMK A01 T02230183  RH  078%=      5-min Rain = 0
KHA2 110841Z 18006KT 22/18 A3008 RMK A01 T02220182  RH  078%=      5-min Rain = 0
KHA2 110842Z 18006KT 22/18 A3008 RMK A01 T02220183  RH  078%=      5-min Rain = 0
KHA2 110843Z 18006KT 22/18 A3008 RMK A01 T02220183  RH  078%=      5-min Rain = 0
KHA2 110844Z 18006KT 22/18 A3008 RMK A01 T02210182  RH  079%=      5-min Rain = 0
KHA2 110845Z 18006KT 22/18 A3008 RMK A01 T02200182  RH  079%=      5-min Rain = 0
KHA2 110846Z 19006KT 22/18 A3008 RMK A01 T02200182  RH  079%=      5-min Rain = 0
KHA2 110847Z 19006KT 22/18 A3008 RMK A01 T02190182  RH  079%=      5-min Rain = 0
KHA2 110848Z 18006KT 22/18 A3008 RMK A01 T02190183  RH  080%=      5-min Rain = 0
KHA2 110849Z 18006KT 22/18 A3008 RMK A01 T02190182  RH  080%=      5-min Rain = 0
KHA2 110850Z 18006KT 22/18 A3008 RMK A01 T02190182  RH  079%=      5-min Rain = 0
KHA2 110851Z 18006KT 22/18 A3008 RMK A01 T02190182  RH  079%=      5-min Rain = 0
KHA2 110852Z 18006KT 22/18 A3008 RMK A01 T02190182  RH  079%=      5-min Rain = 0
KHA2 110853Z 18006KT 22/18 A3008 RMK A01 T02190183  RH  080%=      5-min Rain = 0
KHA2 110854Z 18007KT 22/18 A3008 RMK A01 T02190183  RH  080%=      5-min Rain = 0
KHA2 110855Z 18007KT 22/18 A3008 RMK A01 T02180183  RH  080%=      5-min Rain = 0
KHA2 110856Z 18006KT 22/18 A3008 RMK A01 T02180183  RH  080%=      5-min Rain = 0
KHA2 110857Z 18006KT 22/18 A3008 RMK A01 T02170183  RH  081%=      5-min Rain = 0
KHA2 110858Z 18006KT 22/18 A3008 RMK A01 T02160182  RH  081%=      5-min Rain = 0
KHA2 110859Z 18006KT 22/18 A3008 RMK A01 T02160182  RH  081%=      5-min Rain = 0
KHA2 110900Z 18006KT 22/18 A3008 RMK A01 T02160182  RH  081%=      5-min Rain = 0
KHA2 110901Z 19006KT 22/18 A3008 RMK A01 T02160182  RH  081%=      5-min Rain = 0
KHA2 110902Z 19006KT 22/18 A3008 RMK A01 T02150182  RH  081%=      5-min Rain = 0
KHA2 110903Z 19006KT 22/18 A3008 RMK A01 T02150182  RH  081%=      5-min Rain = 0
KHA2 110904Z 19007KT 22/18 A3008 RMK A01 T02150181  RH  081%=      5-min Rain = 0
KHA2 110905Z 19007KT 21/18 A3008 RMK A01 T02140181  RH  081%=      5-min Rain = 0
KHA2 110906Z 19007KT 21/18 A3008 RMK A01 T02140180  RH  081%=      5-min Rain = 0
KHA2 110907Z 19007KT 21/18 A3008 RMK A01 T02140180  RH  080%=      5-min Rain = 0
KHA2 110908Z 19007KT 22/18 A3008 RMK A01 T02150180  RH  080%=      5-min Rain = 0
KHA2 110909Z 19007KT 22/18 A3008 RMK A01 T02160180  RH  080%=      5-min Rain = 0
KHA2 110910Z 19007KT 22/18 A3008 RMK A01 T02160180  RH  080%=      5-min Rain = 0
KHA2 110911Z 19007KT 22/18 A3008 RMK A01 T02170180  RH  080%=      5-min Rain = 0
KHA2 110912Z 19007KT 22/18 A3008 RMK A01 T02170180  RH  079%=      5-min Rain = 0
KHA2 110913Z 19007KT 22/18 A3008 RMK A01 T02170179  RH  079%=      5-min Rain = 0
KHA2 110914Z 20007KT 22/18 A3008 RMK A01 T02180180  RH  079%=      5-min Rain = 0
KHA2 110915Z 20007KT 22/18 A3008 RMK A01 T02180180  RH  079%=      5-min Rain = 0
KHA2 110916Z 20007KT 22/18 A3008 RMK A01 T02190180  RH  078%=      5-min Rain = 0
KHA2 110917Z 20007KT 22/18 A3008 RMK A01 T02190180  RH  078%=      5-min Rain = 0
KHA2 110918Z 20007KT 22/18 A3008 RMK A01 T02190180  RH  078%=      5-min Rain = 0
KHA2 110919Z 20007KT 22/18 A3008 RMK A01 T02190180  RH  078%=      5-min Rain = 0
KHA2 110920Z 20006KT 22/18 A3008 RMK A01 T02190180  RH  078%=      5-min Rain = 0
KHA2 110921Z 20007KT 22/18 A3008 RMK A01 T02190180  RH  078%=      5-min Rain = 0
KHA2 110922Z 20006KT 22/18 A3008 RMK A01 T02190179  RH  078%=      5-min Rain = 0
KHA2 110923Z 20007KT 22/18 A3008 RMK A01 T02190179  RH  078%=      5-min Rain = 0
KHA2 110924Z 20006KT 22/18 A3008 RMK A01 T02190179  RH  078%=      5-min Rain = 0
KHA2 110925Z 20007KT 22/18 A3008 RMK A01 T02190178  RH  077%=      5-min Rain = 0
KHA2 110926Z 19006KT 22/18 A3008 RMK A01 T02200179  RH  077%=      5-min Rain = 0
KHA2 110927Z 19007KT 22/18 A3008 RMK A01 T02200179  RH  077%=      5-min Rain = 0
KHA2 110928Z 19007KT 22/18 A3008 RMK A01 T02200179  RH  077%=      5-min Rain = 0
KHA2 110929Z 20007KT 22/18 A3008 RMK A01 T02200179  RH  077%=      5-min Rain = 0
KHA2 110930Z 20007KT 22/18 A3008 RMK A01 T02200178  RH  077%=      5-min Rain = 0
KHA2 110931Z 20006KT 22/18 A3008 RMK A01 T02200178  RH  077%=      5-min Rain = 0
KHA2 110932Z 20006KT 22/18 A3008 RMK A01 T02200178  RH  077%=      5-min Rain = 0
KHA2 110933Z 20006KT 22/18 A3008 RMK A01 T02200178  RH  077%=      5-min Rain = 0
KHA2 110934Z 20006KT 22/18 A3008 RMK A01 T02200178  RH  077%=      5-min Rain = 0
KHA2 110935Z 20006KT 22/18 A3008 RMK A01 T02200178  RH  077%=      5-min Rain = 0
KHA2 110936Z 20006KT 22/18 A3008 RMK A01 T02190178  RH  077%=      5-min Rain = 0
KHA2 110937Z 20006KT 22/18 A3008 RMK A01 T02180177  RH  077%=      5-min Rain = 0
KHA2 110938Z 20006KT 22/18 A3008 RMK A01 T02180177  RH  078%=      5-min Rain = 0
KHA2 110939Z 20006KT 22/18 A3008 RMK A01 T02170177  RH  078%=      5-min Rain = 0
KHA2 110940Z 21006KT 22/18 A3008 RMK A01 T02160177  RH  078%=      5-min Rain = 0
KHA2 110941Z 21006KT 22/18 A3008 RMK A01 T02160177  RH  078%=      5-min Rain = 0
KHA2 110942Z 21007KT 22/18 A3008 RMK A01 T02160177  RH  078%=      5-min Rain = 0
KHA2 110943Z 21007KT 22/18 A3008 RMK A01 T02160177  RH  078%=      5-min Rain = 0
KHA2 110944Z 21007KT 22/18 A3008 RMK A01 T02160177  RH  078%=      5-min Rain = 0
KHA2 110945Z 21007KT 22/18 A3008 RMK A01 T02160176  RH  078%=      5-min Rain = 0
KHA2 110946Z 20007KT 22/18 A3008 RMK A01 T02160176  RH  078%=      5-min Rain = 0
KHA2 110947Z 20008KT 22/18 A3008 RMK A01 T02160176  RH  078%=      5-min Rain = 0
KHA2 110948Z 20008KT 22/18 A3008 RMK A01 T02170175  RH  077%=      5-min Rain = 0
KHA2 110949Z 20008KT 22/18 A3008 RMK A01 T02170175  RH  077%=      5-min Rain = 0
KHA2 110950Z 20008KT 22/18 A3008 RMK A01 T02180175  RH  077%=      5-min Rain = 0
KHA2 110951Z 20008KT 22/18 A3008 RMK A01 T02190175  RH  076%=      5-min Rain = 0
KHA2 110952Z 20008KT 22/18 A3008 RMK A01 T02200175  RH  076%=      5-min Rain = 0
KHA2 110953Z 20008KT 22/18 A3008 RMK A01 T02200175  RH  076%=      5-min Rain = 0
KHA2 110954Z 20008KT 22/18 A3008 RMK A01 T02210176  RH  075%=      5-min Rain = 0
KHA2 110955Z 20008KT 22/18 A3008 RMK A01 T02210176  RH  075%=      5-min Rain = 0
KHA2 110956Z 20008KT 22/18 A3008 RMK A01 T02210176  RH  076%=      5-min Rain = 0
KHA2 110957Z 20007KT 22/18 A3008 RMK A01 T02210176  RH  076%=      5-min Rain = 0
KHA2 110958Z 21007KT 22/18 A3008 RMK A01 T02210176  RH  076%=      5-min Rain = 0
KHA2 110959Z 21008KT 22/18 A3008 RMK A01 T02200175  RH  076%=      5-min Rain = 0
KHA2 111000Z 22008KT 22/18 A3008 RMK A01 T02200175  RH  076%=      5-min Rain = 0
KHA2 111001Z 22008KT 22/18 A3008 RMK A01 T02190175  RH  076%=      5-min Rain = 0
KHA2 111002Z 21008KT 22/18 A3008 RMK A01 T02190175  RH  076%=      5-min Rain = 0
KHA2 111003Z 21009KT 22/17 A3008 RMK A01 T02190174  RH  076%=      5-min Rain = 0
KHA2 111004Z 22009KT 22/17 A3008 RMK A01 T02200174  RH  075%=      5-min Rain = 0
KHA2 111005Z 22010KT 22/17 A3008 RMK A01 T02210173  RH  074%=      5-min Rain = 0
KHA2 111006Z 21009KT 22/17 A3008 RMK A01 T02230173  RH  073%=      5-min Rain = 0
KHA2 111007Z 21009KT 22/17 A3008 RMK A01 T02240173  RH  073%=      5-min Rain = 0
KHA2 111008Z 21009KT 23/17 A3008 RMK A01 T02250173  RH  072%=      5-min Rain = 0
KHA2 111009Z 21008KT 23/17 A3008 RMK A01 T02260172  RH  072%=      5-min Rain = 0
KHA2 111010Z 21008KT 23/17 A3008 RMK A01 T02270173  RH  071%=      5-min Rain = 0
KHA2 111011Z 21008KT 23/17 A3008 RMK A01 T02270173  RH  071%=      5-min Rain = 0
KHA2 111012Z 21008KT 23/17 A3008 RMK A01 T02260173  RH  072%=      5-min Rain = 0
KHA2 111013Z 21008KT 23/17 A3008 RMK A01 T02250172  RH  072%=      5-min Rain = 0
KHA2 111014Z 22007KT 22/17 A3008 RMK A01 T02240172  RH  072%=      5-min Rain = 0
KHA2 111015Z 22007KT 23/17 A3009 RMK A01 T02250171  RH  072%=      5-min Rain = 0
KHA2 111016Z 22008KT 23/17 A3008 RMK A01 T02250172  RH  072%=      5-min Rain = 0
KHA2 111017Z 22008KT 23/17 A3008 RMK A01 T02250172  RH  072%=      5-min Rain = 0
KHA2 111018Z 21008KT 22/17 A3008 RMK A01 T02240172  RH  072%=      5-min Rain = 0
KHA2 111019Z 21008KT 22/17 A3008 RMK A01 T02240171  RH  072%=      5-min Rain = 0
KHA2 111020Z 21008KT 22/17 A3008 RMK A01 T02230171  RH  072%=      5-min Rain = 0
KHA2 111021Z 21008KT 22/17 A3008 RMK A01 T02230171  RH  072%=      5-min Rain = 0
KHA2 111022Z 20008KT 22/17 A3008 RMK A01 T02220171  RH  073%=      5-min Rain = 0
KHA2 111023Z 20008KT 22/17 A3008 RMK A01 T02220171  RH  073%=      5-min Rain = 0
KHA2 111024Z 20008KT 22/17 A3008 RMK A01 T02220171  RH  073%=      5-min Rain = 0
KHA2 111025Z 20008KT 22/17 A3008 RMK A01 T02220171  RH  073%=      5-min Rain = 0
KHA2 111026Z 20008KT 22/17 A3008 RMK A01 T02220171  RH  073%=      5-min Rain = 0
KHA2 111027Z 20007KT 22/17 A3008 RMK A01 T02210171  RH  073%=      5-min Rain = 0
KHA2 111028Z 20007KT 22/17 A3008 RMK A01 T02210171  RH  073%=      5-min Rain = 0
KHA2 111029Z 20007KT 22/17 A3008 RMK A01 T02200170  RH  073%=      5-min Rain = 0
KHA2 111030Z 21007KT 22/17 A3008 RMK A01 T02190170  RH  073%=      5-min Rain = 0
KHA2 111031Z 21008KT 22/17 A3008 RMK A01 T02190170  RH  073%=      5-min Rain = 0
KHA2 111032Z 21007KT 22/17 A3009 RMK A01 T02190170  RH  074%=      5-min Rain = 0
KHA2 111033Z 21008KT 22/17 A3008 RMK A01 T02180169  RH  074%=      5-min Rain = 0
KHA2 111034Z 21008KT 22/17 A3008 RMK A01 T02190169  RH  073%=      5-min Rain = 0
KHA2 111035Z 22008KT 22/17 A3008 RMK A01 T02180169  RH  073%=      5-min Rain = 0
KHA2 111036Z 21008KT 22/17 A3008 RMK A01 T02180168  RH  073%=      5-min Rain = 0
KHA2 111037Z 21008KT 22/17 A3008 RMK A01 T02190168  RH  073%=      5-min Rain = 0
KHA2 111038Z 21008KT 22/17 A3008 RMK A01 T02190168  RH  073%=      5-min Rain = 0
KHA2 111039Z 21008KT 22/17 A3008 RMK A01 T02200168  RH  073%=      5-min Rain = 0
KHA2 111040Z 21008KT 22/17 A3008 RMK A01 T02190168  RH  072%=      5-min Rain = 0
KHA2 111041Z 21007KT 22/17 A3008 RMK A01 T02190168  RH  072%=      5-min Rain = 0
KHA2 111042Z 21007KT 22/17 A3008 RMK A01 T02190168  RH  073%=      5-min Rain = 0
KHA2 111043Z 21007KT 22/17 A3008 RMK A01 T02180168  RH  073%=      5-min Rain = 0
KHA2 111044Z 21008KT 22/17 A3008 RMK A01 T02170168  RH  073%=      5-min Rain = 0
KHA2 111045Z 21008KT 22/17 A3008 RMK A01 T02160167  RH  074%=      5-min Rain = 0
KHA2 111046Z 21007KT 22/17 A3008 RMK A01 T02160167  RH  074%=      5-min Rain = 0
KHA2 111047Z 22007KT 22/17 A3008 RMK A01 T02150167  RH  074%=      5-min Rain = 0
KHA2 111048Z 22007KT 22/17 A3008 RMK A01 T02150167  RH  074%=      5-min Rain = 0
KHA2 111049Z 22007KT 21/17 A3008 RMK A01 T02140167  RH  075%=      5-min Rain = 0
KHA2 111050Z 22007KT 21/17 A3008 RMK A01 T02140167  RH  075%=      5-min Rain = 0
KHA2 111051Z 22008KT 21/17 A3009 RMK A01 T02130167  RH  075%=      5-min Rain = 0
KHA2 111052Z 21008KT 21/17 A3009 RMK A01 T02130167  RH  075%=      5-min Rain = 0
KHA2 111053Z 21009KT 21/17 A3009 RMK A01 T02140167  RH  074%=      5-min Rain = 0
KHA2 111054Z 21009KT 22/17 A3009 RMK A01 T02150166  RH  074%=      5-min Rain = 0
KHA2 111055Z 21008KT 22/17 A3009 RMK A01 T02160167  RH  073%=      5-min Rain = 0
KHA2 111056Z 21008KT 22/17 A3009 RMK A01 T02170167  RH  073%=      5-min Rain = 0
KHA2 111057Z 21008KT 22/17 A3009 RMK A01 T02180167  RH  073%=      5-min Rain = 0
KHA2 111058Z 21008KT 22/17 A3009 RMK A01 T02190167  RH  072%=      5-min Rain = 0
KHA2 111059Z 21008KT 22/17 A3009 RMK A01 T02190167  RH  072%=      5-min Rain = 0
KHA2 111100Z 21008KT 22/17 A3009 RMK A01 T02190167  RH  072%=      5-min Rain = 0
KHA2 111101Z 21008KT 22/17 A3009 RMK A01 T02190167  RH  072%=      5-min Rain = 0
KHA2 111102Z 21008KT 22/17 A3009 RMK A01 T02180166  RH  072%=      5-min Rain = 0
KHA2 111103Z 21007KT 22/17 A3009 RMK A01 T02180166  RH  072%=      5-min Rain = 0
KHA2 111104Z 21007KT 22/17 A3009 RMK A01 T02170166  RH  073%=      5-min Rain = 0
KHA2 111105Z 21007KT 22/17 A3009 RMK A01 T02160167  RH  073%=      5-min Rain = 0
KHA2 111106Z 21007KT 22/17 A3009 RMK A01 T02150166  RH  074%=      5-min Rain = 0
KHA2 111107Z 21007KT 21/17 A3009 RMK A01 T02140166  RH  074%=      5-min Rain = 0
KHA2 111108Z 21007KT 21/17 A3009 RMK A01 T02130166  RH  074%=      5-min Rain = 0
KHA2 111109Z 21008KT 21/17 A3009 RMK A01 T02120166  RH  075%=      5-min Rain = 0
KHA2 111110Z 21007KT 21/17 A3009 RMK A01 T02120166  RH  075%=      5-min Rain = 0
KHA2 111111Z 21007KT 21/17 A3009 RMK A01 T02120166  RH  075%=      5-min Rain = 0
KHA2 111112Z 21007KT 21/17 A3009 RMK A01 T02120166  RH  075%=      5-min Rain = 0
KHA2 111113Z 21007KT 21/17 A3009 RMK A01 T02110166  RH  075%=      5-min Rain = 0
KHA2 111114Z 21007KT 21/17 A3009 RMK A01 T02100165  RH  075%=      5-min Rain = 0
KHA2 111115Z 21007KT 21/17 A3009 RMK A01 T02110166  RH  076%=      5-min Rain = 0
KHA2 111116Z 21007KT 21/17 A3009 RMK A01 T02100166  RH  076%=      5-min Rain = 0
KHA2 111117Z 21007KT 21/17 A3009 RMK A01 T02100165  RH  076%=      5-min Rain = 0
KHA2 111118Z 21007KT 21/17 A3009 RMK A01 T02100165  RH  076%=      5-min Rain = 0
KHA2 111119Z 21007KT 21/17 A3009 RMK A01 T02090165  RH  076%=      5-min Rain = 0
KHA2 111120Z 21007KT 21/17 A3009 RMK A01 T02090165  RH  076%=      5-min Rain = 0
KHA2 111121Z 21007KT 21/17 A3009 RMK A01 T02080165  RH  076%=      5-min Rain = 0
KHA2 111122Z 21007KT 21/17 A3009 RMK A01 T02080165  RH  076%=      5-min Rain = 0
KHA2 111123Z 21007KT 21/17 A3009 RMK A01 T02080165  RH  076%=      5-min Rain = 0
KHA2 111124Z 21007KT 21/17 A3009 RMK A01 T02080165  RH  076%=      5-min Rain = 0
KHA2 111125Z 21007KT 21/16 A3009 RMK A01 T02080164  RH  076%=      5-min Rain = 0
KHA2 111126Z 21007KT 21/16 A3009 RMK A01 T02080164  RH  076%=      5-min Rain = 0
KHA2 111127Z 21007KT 21/16 A3009 RMK A01 T02090164  RH  076%=      5-min Rain = 0
KHA2 111128Z 21006KT 21/17 A3009 RMK A01 T02090165  RH  076%=      5-min Rain = 0
KHA2 111129Z 21006KT 21/17 A3009 RMK A01 T02090165  RH  076%=      5-min Rain = 0
KHA2 111130Z 21007KT 21/17 A3009 RMK A01 T02080165  RH  076%=      5-min Rain = 0
KHA2 111131Z 21007KT 21/17 A3009 RMK A01 T02080165  RH  076%=      5-min Rain = 0
KHA2 111132Z 21007KT 21/16 A3009 RMK A01 T02080164  RH  076%=      5-min Rain = 0
KHA2 111133Z 21007KT 21/16 A3009 RMK A01 T02080164  RH  076%=      5-min Rain = 0
KHA2 111134Z 21007KT 21/16 A3009 RMK A01 T02070164  RH  076%=      5-min Rain = 0
KHA2 111135Z 21007KT 21/16 A301 RMK A01 T02070164  RH  077%=      5-min Rain = 0
KHA2 111136Z 21007KT 21/16 A301 RMK A01 T02070164  RH  077%=      5-min Rain = 0
KHA2 111137Z 21007KT 21/16 A301 RMK A01 T02060164  RH  077%=      5-min Rain = 0
KHA2 111138Z 21007KT 21/16 A301 RMK A01 T02060164  RH  077%=      5-min Rain = 0
KHA2 111139Z 21007KT 21/16 A301 RMK A01 T02060164  RH  077%=      5-min Rain = 0
KHA2 111140Z 21007KT 21/16 A301 RMK A01 T02060163  RH  077%=      5-min Rain = 0
KHA2 111141Z 21007KT 21/16 A301 RMK A01 T02060164  RH  077%=      5-min Rain = 0
KHA2 111142Z 21007KT 21/16 A301 RMK A01 T02060164  RH  077%=      5-min Rain = 0
KHA2 111143Z 21007KT 21/16 A301 RMK A01 T02060164  RH  077%=      5-min Rain = 0
KHA2 111144Z 21007KT 21/16 A301 RMK A01 T02070164  RH  076%=      5-min Rain = 0
KHA2 111145Z 21007KT 21/16 A301 RMK A01 T02070164  RH  076%=      5-min Rain = 0
KHA2 111146Z 21007KT 21/16 A301 RMK A01 T02070164  RH  076%=      5-min Rain = 0
KHA2 111147Z 21007KT 21/16 A301 RMK A01 T02070164  RH  077%=      5-min Rain = 0
KHA2 111148Z 21007KT 21/16 A301 RMK A01 T02070164  RH  077%=      5-min Rain = 0
KHA2 111149Z 21007KT 21/16 A301 RMK A01 T02070164  RH  077%=      5-min Rain = 0
KHA2 111150Z 21007KT 21/16 A301 RMK A01 T02070164  RH  077%=      5-min Rain = 0
KHA2 111151Z 21007KT 21/16 A301 RMK A01 T02070164  RH  076%=      5-min Rain = 0
KHA2 111152Z 21007KT 21/16 A301 RMK A01 T02070164  RH  076%=      5-min Rain = 0
KHA2 111153Z 21007KT 21/16 A301 RMK A01 T02060164  RH  077%=      5-min Rain = 0
KHA2 111154Z 21007KT 21/16 A301 RMK A01 T02070164  RH  076%=      5-min Rain = 0
KHA2 111155Z 21007KT 21/16 A301 RMK A01 T02070164  RH  076%=      5-min Rain = 0
KHA2 111156Z 21007KT 21/16 A301 RMK A01 T02070164  RH  076%=      5-min Rain = 0
KHA2 111157Z 21007KT 21/16 A301 RMK A01 T02070164  RH  076%=      5-min Rain = 0
KHA2 111158Z 21007KT 21/16 A301 RMK A01 T02070164  RH  076%=      5-min Rain = 0
KHA2 111159Z 21007KT 21/16 A301 RMK A01 T02070164  RH  076%=      5-min Rain = 0
KHA2 111200Z 22007KT 21/16 A301 RMK A01 T02070164  RH  076%=      5-min Rain = 0
KHA2 111201Z 22007KT 21/17 A301 RMK A01 T02080165  RH  076%=      5-min Rain = 0
KHA2 111202Z 22007KT 21/16 A301 RMK A01 T02080164  RH  076%=      5-min Rain = 0
KHA2 111203Z 22007KT 21/16 A301 RMK A01 T02080164  RH  076%=      5-min Rain = 0
KHA2 111204Z 22007KT 21/16 A301 RMK A01 T02090164  RH  076%=      5-min Rain = 0
KHA2 111205Z 22007KT 21/16 A301 RMK A01 T02090164  RH  076%=      5-min Rain = 0
KHA2 111206Z 22007KT 21/16 A301 RMK A01 T02090164  RH  076%=      5-min Rain = 0
KHA2 111207Z 21007KT 21/16 A301 RMK A01 T02090164  RH  076%=      5-min Rain = 0
KHA2 111208Z 21007KT 21/16 A301 RMK A01 T02090164  RH  076%=      5-min Rain = 0
KHA2 111209Z 21007KT 21/17 A301 RMK A01 T02100165  RH  076%=      5-min Rain = 0
KHA2 111210Z 22006KT 21/17 A301 RMK A01 T02100165  RH  075%=      5-min Rain = 0
KHA2 111211Z 22006KT 21/17 A301 RMK A01 T02110165  RH  075%=      5-min Rain = 0
KHA2 111212Z 23006KT 21/17 A301 RMK A01 T02110165  RH  075%=      5-min Rain = 0
KHA2 111213Z 23006KT 21/17 A301 RMK A01 T02110165  RH  075%=      5-min Rain = 0
KHA2 111214Z 23005KT 21/17 A301 RMK A01 T02120165  RH  075%=      5-min Rain = 0
KHA2 111215Z 23005KT 21/17 A301 RMK A01 T02120165  RH  075%=      5-min Rain = 0
KHA2 111216Z 23005KT 21/17 A301 RMK A01 T02120166  RH  075%=      5-min Rain = 0
KHA2 111217Z 23006KT 21/17 A301 RMK A01 T02120165  RH  074%=      5-min Rain = 0
KHA2 111218Z 23006KT 21/17 A301 RMK A01 T02120165  RH  074%=      5-min Rain = 0
KHA2 111219Z 23006KT 21/17 A301 RMK A01 T02120165  RH  074%=      5-min Rain = 0
KHA2 111220Z 23006KT 21/17 A301 RMK A01 T02130166  RH  074%=      5-min Rain = 0
KHA2 111221Z 23006KT 21/17 A301 RMK A01 T02130166  RH  074%=      5-min Rain = 0
KHA2 111222Z 23006KT 21/17 A301 RMK A01 T02140165  RH  074%=      5-min Rain = 0
KHA2 111223Z 22006KT 21/17 A301 RMK A01 T02140166  RH  074%=      5-min Rain = 0
KHA2 111224Z 22006KT 22/17 A301 RMK A01 T02150166  RH  074%=      5-min Rain = 0
KHA2 111225Z 23006KT 22/17 A301 RMK A01 T02150166  RH  074%=      5-min Rain = 0
KHA2 111226Z 23006KT 22/17 A301 RMK A01 T02150166  RH  074%=      5-min Rain = 0
KHA2 111227Z 23006KT 22/17 A301 RMK A01 T02160166  RH  073%=      5-min Rain = 0
KHA2 111228Z 23006KT 22/17 A301 RMK A01 T02170167  RH  073%=      5-min Rain = 0
KHA2 111229Z 23006KT 22/17 A301 RMK A01 T02180167  RH  073%=      5-min Rain = 0
KHA2 111230Z 23006KT 22/17 A301 RMK A01 T02180166  RH  072%=      5-min Rain = 0
KHA2 111231Z 24006KT 22/17 A301 RMK A01 T02190166  RH  072%=      5-min Rain = 0
KHA2 111232Z 23006KT 22/17 A301 RMK A01 T02200167  RH  072%=      5-min Rain = 0
KHA2 111233Z 23005KT 22/17 A301 RMK A01 T02190166  RH  072%=      5-min Rain = 0
KHA2 111234Z 23006KT 22/17 A301 RMK A01 T02200167  RH  072%=      5-min Rain = 0
KHA2 111235Z 24006KT 22/17 A301 RMK A01 T02200167  RH  072%=      5-min Rain = 0
KHA2 111236Z 24006KT 22/17 A301 RMK A01 T02210167  RH  071%=      5-min Rain = 0
KHA2 111237Z 24006KT 22/17 A3011 RMK A01 T02210167  RH  071%=      5-min Rain = 0
KHA2 111238Z 24006KT 22/17 A3011 RMK A01 T02210167  RH  072%=      5-min Rain = 0
KHA2 111239Z 23005KT 22/17 A3011 RMK A01 T02210167  RH  071%=      5-min Rain = 0
KHA2 111240Z 23006KT 22/17 A3011 RMK A01 T02220168  RH  071%=      5-min Rain = 0
KHA2 111241Z 23005KT 22/17 A3011 RMK A01 T02220167  RH  071%=      5-min Rain = 0
KHA2 111242Z 23005KT 22/17 A3011 RMK A01 T02230168  RH  071%=      5-min Rain = 0
KHA2 111243Z 23005KT 22/17 A3011 RMK A01 T02220168  RH  071%=      5-min Rain = 0
KHA2 111244Z 23005KT 22/17 A3011 RMK A01 T02230168  RH  071%=      5-min Rain = 0
KHA2 111245Z 23005KT 22/17 A3011 RMK A01 T02240167  RH  070%=      5-min Rain = 0
KHA2 111246Z 23006KT 22/17 A3011 RMK A01 T02240166  RH  070%=      5-min Rain = 0
KHA2 111247Z 24006KT 23/17 A3011 RMK A01 T02250166  RH  070%=      5-min Rain = 0
KHA2 111248Z 23006KT 23/17 A3011 RMK A01 T02250167  RH  070%=      5-min Rain = 0
KHA2 111249Z 23006KT 23/17 A3011 RMK A01 T02260167  RH  070%=      5-min Rain = 0
KHA2 111250Z 23006KT 23/17 A3011 RMK A01 T02260167  RH  069%=      5-min Rain = 0
KHA2 111251Z 24006KT 23/17 A3011 RMK A01 T02260167  RH  069%=      5-min Rain = 0
KHA2 111252Z 24005KT 23/17 A3011 RMK A01 T02270168  RH  069%=      5-min Rain = 0
KHA2 111253Z 24006KT 23/17 A3011 RMK A01 T02280169  RH  069%=      5-min Rain = 0
KHA2 111254Z 24006KT 23/17 A3011 RMK A01 T02280169  RH  069%=      5-min Rain = 0
KHA2 111255Z 25006KT 23/17 A3011 RMK A01 T02290169  RH  069%=      5-min Rain = 0
KHA2 111256Z 25006KT 23/17 A3011 RMK A01 T02290169  RH  069%=      5-min Rain = 0
KHA2 111257Z 25006KT 23/17 A3011 RMK A01 T02290168  RH  068%=      5-min Rain = 0
KHA2 111258Z 26006KT 23/17 A3011 RMK A01 T02290169  RH  069%=      5-min Rain = 0
KHA2 111259Z 26006KT 23/17 A3011 RMK A01 T02300169  RH  069%=      5-min Rain = 0
KHA2 111300Z 26007KT 23/17 A3011 RMK A01 T02310169  RH  068%=      5-min Rain = 0
KHA2 111301Z 26006KT 23/17 A3011 RMK A01 T02310170  RH  068%=      5-min Rain = 0
KHA2 111302Z 26007KT 23/17 A3011 RMK A01 T02320169  RH  068%=      5-min Rain = 0
KHA2 111303Z 26008KT 23/17 A3011 RMK A01 T02320169  RH  067%=      5-min Rain = 0
KHA2 111304Z 25006KT 23/17 A3012 RMK A01 T02330168  RH  067%=      5-min Rain = 0
KHA2 111305Z 25007KT 23/17 A3012 RMK A01 T02340170  RH  067%=      5-min Rain = 0
KHA2 111306Z 25006KT 24/17 A3012 RMK A01 T02350171  RH  067%=      5-min Rain = 0
KHA2 111307Z 25007KT 24/17 A3012 RMK A01 T02350170  RH  067%=      5-min Rain = 0
KHA2 111308Z 25007KT 24/17 A3012 RMK A01 T02360170  RH  067%=      5-min Rain = 0
KHA2 111309Z 25007KT 24/17 A3012 RMK A01 T02370171  RH  066%=      5-min Rain = 0
KHA2 111310Z 24007KT 24/17 A3011 RMK A01 T02380172  RH  066%=      5-min Rain = 0
KHA2 111311Z 24007KT 24/17 A3012 RMK A01 T02390172  RH  066%=      5-min Rain = 0
KHA2 111312Z 24008KT 24/17 A3011 RMK A01 T02410171  RH  065%=      5-min Rain = 0
KHA2 111313Z 24008KT 24/17 A3011 RMK A01 T02420172  RH  065%=      5-min Rain = 0
KHA2 111314Z 24008KT 24/17 A3011 RMK A01 T02430172  RH  064%=      5-min Rain = 0
KHA2 111315Z 24009KT 25/17 A3011 RMK A01 T02450172  RH  064%=      5-min Rain = 0
KHA2 111316Z 24009KT 25/17 A3011 RMK A01 T02470170  RH  062%=      5-min Rain = 0
KHA2 111317Z 24009KT 25/17 A3011 RMK A01 T02480170  RH  062%=      5-min Rain = 0
KHA2 111318Z 24008KT 25/17 A3012 RMK A01 T02490170  RH  062%=      5-min Rain = 0
KHA2 111319Z 24008KT 25/17 A3012 RMK A01 T02500171  RH  062%=      5-min Rain = 0
KHA2 111320Z 24009KT 25/17 A3012 RMK A01 T02500168  RH  060%=      5-min Rain = 0
KHA2 111321Z 24009KT 25/17 A3012 RMK A01 T02510169  RH  060%=      5-min Rain = 0
KHA2 111322Z 24009KT 25/17 A3012 RMK A01 T02510169  RH  060%=      5-min Rain = 0
KHA2 111323Z 24008KT 25/17 A3012 RMK A01 T02510169  RH  060%=      5-min Rain = 0
KHA2 111324Z 24008KT 25/17 A3012 RMK A01 T02530170  RH  060%=      5-min Rain = 0
KHA2 111325Z 24010KT 25/17 A3012 RMK A01 T02540170  RH  060%=      5-min Rain = 0
KHA2 111326Z 24009KT 26/17 A3012 RMK A01 T02560169  RH  059%=      5-min Rain = 0
KHA2 111327Z 24009KT 26/17 A3012 RMK A01 T02570169  RH  058%=      5-min Rain = 0
KHA2 111328Z 24008KT 26/17 A3012 RMK A01 T02580169  RH  058%=      5-min Rain = 0
KHA2 111329Z 24009KT 26/17 A3012 RMK A01 T02600170  RH  058%=      5-min Rain = 0
KHA2 111330Z 25009KT 26/17 A3012 RMK A01 T02600169  RH  057%=      5-min Rain = 0
KHA2 111331Z 24009KT 26/17 A3012 RMK A01 T02620170  RH  057%=      5-min Rain = 0
KHA2 111332Z 24010KT 26/17 A3012 RMK A01 T02630170  RH  057%=      5-min Rain = 0
KHA2 111333Z 24008KT 27/17 A3012 RMK A01 T02650170  RH  056%=      5-min Rain = 0
KHA2 111334Z 24009KT 27/17 A3012 RMK A01 T02660172  RH  056%=      5-min Rain = 0
KHA2 111335Z 24009KT 27/17 A3012 RMK A01 T02680171  RH  055%=      5-min Rain = 0
KHA2 111336Z 24010KT 27/17 A3012 RMK A01 T02700171  RH  055%=      5-min Rain = 0
KHA2 111337Z 24011KT 27/17 A3012 RMK A01 T02710168  RH  053%=      5-min Rain = 0
KHA2 111338Z 24010KT 27/17 A3012 RMK A01 T02720167  RH  053%=      5-min Rain = 0
KHA2 111339Z 24010KT 27/17 A3012 RMK A01 T02720167  RH  053%=      5-min Rain = 0
KHA2 111340Z 23008KT 27/17 A3012 RMK A01 T02730167  RH  052%=      5-min Rain = 0
KHA2 111341Z 24009KT 27/17 A3012 RMK A01 T02740168  RH  052%=      5-min Rain = 0
KHA2 111342Z 24012KT 28/17 A3012 RMK A01 T02750166  RH  051%=      5-min Rain = 0
KHA2 111343Z 24013KT 28/16 A3012 RMK A01 T02770164  RH  050%=      5-min Rain = 0
KHA2 111344Z 24013KT 28/17 A3012 RMK A01 T02780165  RH  050%=      5-min Rain = 0
KHA2 111345Z 25014KT 28/17 A3012 RMK A01 T02790165  RH  050%=      5-min Rain = 0
KHA2 111346Z 24012KT 28/16 A3012 RMK A01 T02800164  RH  049%=      5-min Rain = 0
KHA2 111347Z 24014KT 28/16 A3012 RMK A01 T02810163  RH  049%=      5-min Rain = 0
KHA2 111348Z 25014KT 28/16 A3012 RMK A01 T02810163  RH  049%=      5-min Rain = 0
KHA2 111349Z 24015KT 28/16 A3012 RMK A01 T02820163  RH  048%=      5-min Rain = 0
KHA2 111350Z 24013KT 28/16 A3012 RMK A01 T02820163  RH  048%=      5-min Rain = 0
KHA2 111351Z 24013KT 28/16 A3012 RMK A01 T02820163  RH  048%=      5-min Rain = 0
KHA2 111352Z 24013KT 28/16 A3012 RMK A01 T02810162  RH  049%=      5-min Rain = 0
KHA2 111353Z 24012KT 28/16 A3012 RMK A01 T02800162  RH  049%=      5-min Rain = 0
KHA2 111354Z 24012KT 28/16 A3012 RMK A01 T02800163  RH  049%=      5-min Rain = 0
KHA2 111355Z 24011KT 28/16 A3013 RMK A01 T02800164  RH  049%=      5-min Rain = 0
KHA2 111356Z 23012KT 28/16 A3013 RMK A01 T02790163  RH  049%=      5-min Rain = 0
KHA2 111357Z 23011KT 28/16 A3013 RMK A01 T02800164  RH  049%=      5-min Rain = 0
KHA2 111358Z 23012KT 28/16 A3013 RMK A01 T02820164  RH  049%=      5-min Rain = 0
KHA2 111359Z 24012KT 28/17 A3013 RMK A01 T02840165  RH  048%=      5-min Rain = 0
KHA2 111400Z 24012KT 29/16 A3013 RMK A01 T02860164  RH  048%=      5-min Rain = 0
KHA2 111401Z 24010KT 29/17 A3013 RMK A01 T02860166  RH  048%=      5-min Rain = 0
KHA2 111402Z 24012KT 29/16 A3013 RMK A01 T02870164  RH  047%=      5-min Rain = 0
KHA2 111403Z 24012KT 29/16 A3013 RMK A01 T02870164  RH  047%=      5-min Rain = 0
KHA2 111404Z 23012KT 29/16 A3013 RMK A01 T02860164  RH  047%=      5-min Rain = 0
KHA2 111405Z 23012KT 29/16 A3013 RMK A01 T02860164  RH  048%=      5-min Rain = 0
KHA2 111406Z 23012KT 29/16 A3013 RMK A01 T02850163  RH  048%=      5-min Rain = 0
KHA2 111407Z 24013KT 29/16 A3013 RMK A01 T02850163  RH  048%=      5-min Rain = 0
KHA2 111408Z 23013KT 29/16 A3013 RMK A01 T02850164  RH  048%=      5-min Rain = 0
KHA2 111409Z 23011KT 29/16 A3013 RMK A01 T02860164  RH  048%=      5-min Rain = 0
KHA2 111410Z 23013KT 29/16 A3013 RMK A01 T02860164  RH  047%=      5-min Rain = 0
KHA2 111411Z 22015KT 29/16 A3013 RMK A01 T02880163  RH  047%=      5-min Rain = 0
KHA2 111412Z 23013KT 29/16 A3013 RMK A01 T02900163  RH  046%=      5-min Rain = 0
KHA2 111413Z 24013KT 29/16 A3013 RMK A01 T02920164  RH  046%=      5-min Rain = 0
KHA2 111414Z 24013KT 29/17 A3013 RMK A01 T02940165  RH  046%=      5-min Rain = 0
KHA2 111415Z 24013KT 30/16 A3013 RMK A01 T02950164  RH  045%=      5-min Rain = 0
KHA2 111416Z 24012KT 30/16 A3013 RMK A01 T02950164  RH  045%=      5-min Rain = 0
KHA2 111417Z 23012KT 30/17 A3013 RMK A01 T02960165  RH  045%=      5-min Rain = 0
KHA2 111418Z 23013KT 30/16 A3013 RMK A01 T02980164  RH  044%=      5-min Rain = 0
KHA2 111419Z 23012KT 30/17 A3013 RMK A01 T02990165  RH  044%=      5-min Rain = 0
KHA2 111420Z 22013KT 30/16 A3013 RMK A01 T03000164  RH  044%=      5-min Rain = 0
KHA2 111421Z 22012KT 30/16 A3013 RMK A01 T03000163  RH  044%=      5-min Rain = 0
KHA2 111422Z 22013KT 30/17 A3013 RMK A01 T03020165  RH  044%=      5-min Rain = 0
KHA2 111423Z 22014KT 30/16 A3013 RMK A01 T03030163  RH  043%=      5-min Rain = 0
KHA2 111424Z 22013KT 30/16 A3013 RMK A01 T03030163  RH  043%=      5-min Rain = 0
KHA2 111425Z 22012KT 30/16 A3013 RMK A01 T03030164  RH  043%=      5-min Rain = 0
KHA2 111426Z 23013KT 30/16 A3013 RMK A01 T03040164  RH  043%=      5-min Rain = 0
KHA2 111427Z 23015KT 31/16 A3012 RMK A01 T03060162  RH  042%=      5-min Rain = 0
KHA2 111428Z 23014KT 31/16 A3012 RMK A01 T03050162  RH  042%=      5-min Rain = 0
KHA2 111429Z 23013KT 31/16 A3012 RMK A01 T03050162  RH  042%=      5-min Rain = 0
KHA2 111430Z 23013KT 31/16 A3012 RMK A01 T03050163  RH  042%=      5-min Rain = 0
KHA2 111431Z 23014KT 31/16 A3012 RMK A01 T03070162  RH  042%=      5-min Rain = 0
KHA2 111432Z 23013KT 31/16 A3013 RMK A01 T03070163  RH  042%=      5-min Rain = 0
KHA2 111433Z 23013KT 31/16 A3012 RMK A01 T03080161  RH  041%=      5-min Rain = 0
KHA2 111434Z 24013KT 31/16 A3012 RMK A01 T03080162  RH  041%=      5-min Rain = 0
KHA2 111435Z 22014KT 31/16 A3012 RMK A01 T03080162  RH  041%=      5-min Rain = 0
KHA2 111436Z 22015KT 31/16 A3012 RMK A01 T03100162  RH  041%=      5-min Rain = 0
KHA2 111437Z 22015KT 31/16 A3012 RMK A01 T03100160  RH  040%=      5-min Rain = 0
KHA2 111438Z 22016KT 31/16 A3012 RMK A01 T03100160  RH  040%=      5-min Rain = 0
KHA2 111439Z 23016KT 31/16 A3012 RMK A01 T03110159  RH  040%=      5-min Rain = 0
KHA2 111440Z 23016KT 31/16 A3012 RMK A01 T03120159  RH  040%=      5-min Rain = 0
KHA2 111441Z 23016KT 31/16 A3012 RMK A01 T03120159  RH  040%=      5-min Rain = 0
KHA2 111442Z 23015KT 31/16 A3012 RMK A01 T03120159  RH  040%=      5-min Rain = 0
KHA2 111443Z 23012KT 31/16 A3012 RMK A01 T03120159  RH  040%=      5-min Rain = 0
KHA2 111444Z 23014KT 32/16 A3012 RMK A01 T03150161  RH  040%=      5-min Rain = 0
KHA2 111445Z 23015KT 32/16 A3012 RMK A01 T03170159  RH  039%=      5-min Rain = 0
KHA2 111446Z 23017KT 32/16 A3012 RMK A01 T03170157  RH  038%=      5-min Rain = 0
KHA2 111447Z 23015KT 32/16 A3012 RMK A01 T03160155  RH  038%=      5-min Rain = 0
KHA2 111448Z 23014KT 32/16 A3012 RMK A01 T03160157  RH  038%=      5-min Rain = 0
KHA2 111449Z 23015KT 32/16 A3012 RMK A01 T03190157  RH  038%=      5-min Rain = 0
KHA2 111450Z 24015KT 32/16 A3012 RMK A01 T03190157  RH  038%=      5-min Rain = 0
KHA2 111451Z 23016KT 32/16 A3012 RMK A01 T03190156  RH  037%=      5-min Rain = 0
KHA2 111452Z 23016KT 32/16 A3012 RMK A01 T03190155  RH  037%=      5-min Rain = 0
KHA2 111453Z 24016KT 32/16 A3012 RMK A01 T03190155  RH  037%=      5-min Rain = 0
KHA2 111454Z 24014KT 32/16 A3012 RMK A01 T03190156  RH  037%=      5-min Rain = 0
KHA2 111455Z 24014KT 32/16 A3012 RMK A01 T03190156  RH  037%=      5-min Rain = 0
KHA2 111456Z 24013KT 32/16 A3012 RMK A01 T03200156  RH  037%=      5-min Rain = 0
KHA2 111457Z 23015KT 32/16 A3012 RMK A01 T03230158  RH  037%=      5-min Rain = 0
KHA2 111458Z 23017KT 32/15 A3012 RMK A01 T03240154  RH  036%=      5-min Rain = 0
KHA2 111459Z 23015KT 32/16 A3012 RMK A01 T03230155  RH  036%=      5-min Rain = 0
KHA2 111500Z 24013KT 32/16 A3012 RMK A01 T03220156  RH  037%=      5-min Rain = 0
KHA2 111501Z 23014KT 33/16 A3012 RMK A01 T03250156  RH  036%=      5-min Rain = 0
KHA2 111502Z 23015KT 33/16 A3012 RMK A01 T03260157  RH  036%=      5-min Rain = 0
KHA2 111503Z 23015KT 33/16 A3012 RMK A01 T03270155  RH  036%=      5-min Rain = 0
KHA2 111504Z 23015KT 33/15 A3011 RMK A01 T03260154  RH  036%=      5-min Rain = 0
KHA2 111505Z 24013KT 32/16 A3012 RMK A01 T03240156  RH  036%=      5-min Rain = 0
KHA2 111506Z 23015KT 32/16 A3012 RMK A01 T03240155  RH  036%=      5-min Rain = 0
KHA2 111507Z 24014KT 33/15 A3012 RMK A01 T03260154  RH  036%=      5-min Rain = 0
KHA2 111508Z 23014KT 33/15 A3011 RMK A01 T03270154  RH  035%=      5-min Rain = 0
KHA2 111509Z 23014KT 33/16 A3012 RMK A01 T03290155  RH  035%=      5-min Rain = 0
KHA2 111510Z 22013KT 33/16 A3012 RMK A01 T03290158  RH  036%=      5-min Rain = 0
KHA2 111511Z 22013KT 33/16 A3012 RMK A01 T03310159  RH  036%=      5-min Rain = 0
KHA2 111512Z 22010KT 33/16 A3011 RMK A01 T03320159  RH  036%=      5-min Rain = 0
KHA2 111513Z 23012KT 33/16 A3011 RMK A01 T03340159  RH  035%=      5-min Rain = 0
KHA2 111514Z 22012KT 33/16 A3011 RMK A01 T03340157  RH  035%=      5-min Rain = 0
KHA2 111515Z 22015KT 33/16 A3011 RMK A01 T03330157  RH  035%=      5-min Rain = 0
KHA2 111516Z 22015KT 33/16 A3011 RMK A01 T03320156  RH  035%=      5-min Rain = 0
KHA2 111517Z 22014KT 33/16 A3011 RMK A01 T03300156  RH  035%=      5-min Rain = 0
KHA2 111518Z 22013KT 33/16 A3011 RMK A01 T03290157  RH  035%=      5-min Rain = 0
KHA2 111519Z 23013KT 33/16 A3011 RMK A01 T03300158  RH  035%=      5-min Rain = 0
KHA2 111520Z 22015KT 33/16 A3011 RMK A01 T03330156  RH  035%=      5-min Rain = 0
KHA2 111521Z 22015KT 33/16 A3011 RMK A01 T03330156  RH  035%=      5-min Rain = 0
KHA2 111522Z 23014KT 33/15 A3011 RMK A01 T03330153  RH  034%=      5-min Rain = 0
KHA2 111523Z 23014KT 33/15 A3011 RMK A01 T03330154  RH  034%=      5-min Rain = 0
KHA2 111524Z 22013KT 34/16 A3011 RMK A01 T03380158  RH  034%=      5-min Rain = 0
KHA2 111525Z 22013KT 34/16 A3011 RMK A01 T03400157  RH  034%=      5-min Rain = 0
KHA2 111526Z 22014KT 34/16 A3011 RMK A01 T03390157  RH  034%=      5-min Rain = 0
KHA2 111527Z 22015KT 34/16 A3011 RMK A01 T03390155  RH  033%=      5-min Rain = 0
KHA2 111528Z 21014KT 34/16 A3011 RMK A01 T03370155  RH  034%=      5-min Rain = 0
KHA2 111529Z 22014KT 34/15 A3011 RMK A01 T03370153  RH  033%=      5-min Rain = 0
KHA2 111530Z 22017KT 34/15 A3011 RMK A01 T03350153  RH  033%=      5-min Rain = 0
KHA2 111531Z 21014KT 34/15 A3011 RMK A01 T03360154  RH  034%=      5-min Rain = 0
KHA2 111532Z 22014KT 34/16 A3011 RMK A01 T03410155  RH  033%=      5-min Rain = 0
KHA2 111533Z 23014KT 34/15 A301 RMK A01 T03420152  RH  032%=      5-min Rain = 0
KHA2 111534Z 23017KT 34/15 A301 RMK A01 T03410147  RH  031%=      5-min Rain = 0
KHA2 111535Z 23016KT 34/15 A301 RMK A01 T03390149  RH  032%=      5-min Rain = 0
KHA2 111536Z 22014KT 34/15 A301 RMK A01 T03390151  RH  033%=      5-min Rain = 0
KHA2 111537Z 21014KT 34/16 A301 RMK A01 T03390155  RH  033%=      5-min Rain = 0
KHA2 111538Z 21016KT 34/15 A301 RMK A01 T03410153  RH  032%=      5-min Rain = 0
KHA2 111539Z 22015KT 34/15 A301 RMK A01 T03410153  RH  033%=      5-min Rain = 0
KHA2 111540Z 22016KT 34/15 A301 RMK A01 T03400151  RH  032%=      5-min Rain = 0
KHA2 111541Z 23017KT 34/15 A301 RMK A01 T03420149  RH  031%=      5-min Rain = 0
KHA2 111542Z 23015KT 34/15 A301 RMK A01 T03420153  RH  032%=      5-min Rain = 0
KHA2 111543Z 22013KT 34/15 A301 RMK A01 T03410154  RH  033%=      5-min Rain = 0
KHA2 111544Z 21015KT 34/16 A301 RMK A01 T03440159  RH  033%=      5-min Rain = 0
KHA2 111545Z 21013KT 34/16 A301 RMK A01 T03440161  RH  034%=      5-min Rain = 0
KHA2 111546Z 23015KT 34/16 A301 RMK A01 T03430156  RH  033%=      5-min Rain = 0
KHA2 111547Z 23012G17KT 35/16 A301 RMK A01 T03460157  RH  032%=      5-min Rain = 0
KHA2 111548Z 22014KT 35/16 A301 RMK A01 T03470158  RH  032%=      5-min Rain = 0
KHA2 111549Z 23012KT 35/15 A301 RMK A01 T03480153  RH  031%=      5-min Rain = 0
KHA2 111550Z 22014KT 35/16 A301 RMK A01 T03510158  RH  032%=      5-min Rain = 0
KHA2 111551Z 21014KT 35/16 A301 RMK A01 T03510158  RH  032%=      5-min Rain = 0
KHA2 111552Z 22015KT 35/16 A301 RMK A01 T03470157  RH  032%=      5-min Rain = 0
KHA2 111553Z 22015KT 35/16 A301 RMK A01 T03450157  RH  033%=      5-min Rain = 0
KHA2 111554Z 22013KT 35/16 A301 RMK A01 T03460157  RH  032%=      5-min Rain = 0
KHA2 111555Z 22016KT 35/16 A301 RMK A01 T03490158  RH  032%=      5-min Rain = 0
KHA2 111556Z 22016KT 35/16 A301 RMK A01 T03490155  RH  032%=      5-min Rain = 0
KHA2 111557Z 22015KT 35/15 A301 RMK A01 T03480154  RH  032%=      5-min Rain = 0
KHA2 111558Z 21016KT 35/15 A301 RMK A01 T03490153  RH  031%=      5-min Rain = 0
KHA2 111559Z 22013KT 35/15 A301 RMK A01 T03500153  RH  031%=      5-min Rain = 0
KHA2 111600Z 22014KT 35/15 A301 RMK A01 T03510152  RH  030%=      5-min Rain = 0
KHA2 111601Z 21016KT 35/15 A301 RMK A01 T03520152  RH  030%=      5-min Rain = 0
KHA2 111602Z 21013KT 35/15 A301 RMK A01 T03520149  RH  030%=      5-min Rain = 0
KHA2 111603Z 21013KT 35/15 A301 RMK A01 T03520154  RH  031%=      5-min Rain = 0
KHA2 111604Z 21015KT 35/15 A301 RMK A01 T03540154  RH  030%=      5-min Rain = 0
KHA2 111605Z 21012KT 35/15 A301 RMK A01 T03540154  RH  030%=      5-min Rain = 0
KHA2 111606Z 22011KT 35/16 A3011 RMK A01 T03530155  RH  031%=      5-min Rain = 0
KHA2 111607Z 21015KT 36/16 A301 RMK A01 T03560155  RH  030%=      5-min Rain = 0
KHA2 111608Z 21015KT 36/15 A301 RMK A01 T03570153  RH  030%=      5-min Rain = 0
KHA2 111609Z 21013KT 36/15 A3011 RMK A01 T03570153  RH  030%=      5-min Rain = 0
KHA2 111610Z 22013KT 36/15 A301 RMK A01 T03590153  RH  029%=      5-min Rain = 0
KHA2 111611Z 22015KT 36/15 A301 RMK A01 T03600154  RH  029%=      5-min Rain = 0
KHA2 111612Z 22015KT 36/15 A3011 RMK A01 T03600154  RH  029%=      5-min Rain = 0
KHA2 111613Z 22013KT 36/15 A3011 RMK A01 T03590149  RH  029%=      5-min Rain = 0
KHA2 111614Z 22012KT 36/15 A3011 RMK A01 T03580151  RH  029%=      5-min Rain = 0
KHA2 111615Z 22012KT 36/15 A3011 RMK A01 T03600150  RH  029%=      5-min Rain = 0
KHA2 111616Z 21012KT 36/15 A3011 RMK A01 T03630153  RH  029%=      5-min Rain = 0
KHA2 111617Z 22014KT 36/15 A3011 RMK A01 T03640153  RH  029%=      5-min Rain = 0
KHA2 111618Z 21013KT 36/15 A3011 RMK A01 T03630153  RH  029%=      5-min Rain = 0
KHA2 111619Z 22014KT 36/15 A3011 RMK A01 T03620154  RH  029%=      5-min Rain = 0
KHA2 111620Z 22012KT 36/15 A3011 RMK A01 T03640154  RH  029%=      5-min Rain = 0
KHA2 111621Z 23012KT 37/15 A3011 RMK A01 T03680151  RH  028%=      5-min Rain = 0
KHA2 111622Z 22013KT 37/15 A3011 RMK A01 T03660151  RH  028%=      5-min Rain = 0
KHA2 111623Z 21013KT 36/15 A3011 RMK A01 T03640154  RH  029%=      5-min Rain = 0
KHA2 111624Z 21013KT 36/15 A3011 RMK A01 T03640153  RH  029%=      5-min Rain = 0
KHA2 111625Z 21013KT 36/15 A3011 RMK A01 T03640150  RH  028%=      5-min Rain = 0
KHA2 111626Z 21013KT 36/15 A3011 RMK A01 T03640149  RH  028%=      5-min Rain = 0
KHA2 111627Z 20013KT 37/15 A301 RMK A01 T03650152  RH  028%=      5-min Rain = 0
KHA2 111628Z 20013KT 37/15 A301 RMK A01 T03650152  RH  028%=      5-min Rain = 0
KHA2 111629Z 22011KT 37/15 A3011 RMK A01 T03650153  RH  028%=      5-min Rain = 0
KHA2 111630Z 20012KT 37/15 A301 RMK A01 T03660153  RH  028%=      5-min Rain = 0
KHA2 111631Z 20011KT 37/16 A301 RMK A01 T03700157  RH  028%=      5-min Rain = 0
KHA2 111632Z 21013KT 37/15 A301 RMK A01 T03700152  RH  028%=      5-min Rain = 0
KHA2 111633Z 21013KT 37/15 A3011 RMK A01 T03680147  RH  027%=      5-min Rain = 0
KHA2 111634Z 22013KT 37/15 A3011 RMK A01 T03680146  RH  027%=      5-min Rain = 0
KHA2 111635Z 23013KT 37/15 A301 RMK A01 T03680148  RH  027%=      5-min Rain = 0
KHA2 111636Z 22013KT 37/15 A301 RMK A01 T03670152  RH  028%=      5-min Rain = 0
KHA2 111637Z 21011KT 37/15 A3011 RMK A01 T03670149  RH  027%=      5-min Rain = 0
KHA2 111638Z 20013KT 37/15 A301 RMK A01 T03670150  RH  027%=      5-min Rain = 0
KHA2 111639Z 19014KT 37/15 A301 RMK A01 T03680150  RH  027%=      5-min Rain = 0
KHA2 111640Z 19010KT 37/15 A3011 RMK A01 T03670153  RH  028%=      5-min Rain = 0
KHA2 111641Z 21012KT 37/15 A3011 RMK A01 T03670150  RH  028%=      5-min Rain = 0
KHA2 111642Z 22011KT 37/14 A3011 RMK A01 T03680142  RH  026%=      5-min Rain = 0
KHA2 111643Z 20009KT 37/15 A3011 RMK A01 T03690149  RH  027%=      5-min Rain = 0
KHA2 111644Z 20014KT 37/15 A3011 RMK A01 T03710150  RH  027%=      5-min Rain = 0
KHA2 111645Z 20012KT 37/15 A3011 RMK A01 T03700147  RH  027%=      5-min Rain = 0
KHA2 111646Z 21013KT 37/15 A3011 RMK A01 T03680148  RH  027%=      5-min Rain = 0
KHA2 111647Z 22012KT 37/14 A3011 RMK A01 T03720144  RH  026%=      5-min Rain = 0
KHA2 111648Z 20011KT 37/14 A3011 RMK A01 T03700144  RH  026%=      5-min Rain = 0
KHA2 111649Z 20010KT 37/15 A3011 RMK A01 T03720148  RH  026%=      5-min Rain = 0
KHA2 111650Z 20013KT 37/15 A3011 RMK A01 T03730145  RH  026%=      5-min Rain = 0
KHA2 111651Z 20012KT 38/14 A3011 RMK A01 T03760143  RH  025%=      5-min Rain = 0
KHA2 111652Z 21010KT 38/15 A3011 RMK A01 T03770148  RH  026%=      5-min Rain = 0
KHA2 111653Z 21010KT 38/15 A3011 RMK A01 T03800149  RH  026%=      5-min Rain = 0
KHA2 111654Z 21014KT 38/15 A3011 RMK A01 T03800149  RH  026%=      5-min Rain = 0
KHA2 111655Z 21013KT 38/15 A3011 RMK A01 T03780147  RH  025%=      5-min Rain = 0
KHA2 111656Z 21012KT 38/14 A3011 RMK A01 T03760138  RH  024%=      5-min Rain = 0
KHA2 111657Z 20010KT 38/14 A3011 RMK A01 T03750144  RH  025%=      5-min Rain = 0
KHA2 111658Z 19008KT 38/14 A3011 RMK A01 T03760143  RH  025%=      5-min Rain = 0
KHA2 111659Z 21013KT 38/15 A3011 RMK A01 T03760146  RH  026%=      5-min Rain = 0
KHA2 111700Z 21013KT 38/14 A3011 RMK A01 T03780143  RH  025%=      5-min Rain = 0
KHA2 111701Z 23012KT 38/14 A3011 RMK A01 T03760143  RH  025%=      5-min Rain = 0
KHA2 111702Z 21011KT 38/14 A3011 RMK A01 T03760141  RH  025%=      5-min Rain = 0
KHA2 111703Z 19012KT 38/15 A3011 RMK A01 T03780147  RH  026%=      5-min Rain = 0
KHA2 111704Z 22011KT 38/15 A3011 RMK A01 T03790149  RH  026%=      5-min Rain = 0
KHA2 111705Z 21013KT 39/14 A3011 RMK A01 T03850141  RH  024%=      5-min Rain = 0
KHA2 111706Z 20011KT 39/13 A3011 RMK A01 T03850129  RH  022%=      5-min Rain = 0
KHA2 111707Z 19012KT 38/14 A3011 RMK A01 T03830141  RH  024%=      5-min Rain = 0
KHA2 111708Z 19012KT 38/14 A3011 RMK A01 T03810141  RH  024%=      5-min Rain = 0
KHA2 111709Z 19012KT 38/14 A3011 RMK A01 T03810143  RH  024%=      5-min Rain = 0
KHA2 111710Z 20011G16KT 39/14 A3011 RMK A01 T03850143  RH  024%=      5-min Rain = 0
KHA2 111711Z 19013KT 39/14 A3011 RMK A01 T03880141  RH  023%=      5-min Rain = 0
KHA2 111712Z 20009KT 38/13 A3011 RMK A01 T03830133  RH  023%=      5-min Rain = 0
KHA2 111713Z 21009KT 38/13 A3011 RMK A01 T03790133  RH  023%=      5-min Rain = 0
KHA2 111714Z 23011KT 38/13 A3011 RMK A01 T03810130  RH  022%=      5-min Rain = 0
KHA2 111715Z 24012KT 38/12 A3011 RMK A01 T03820123  RH  021%=      5-min Rain = 0
KHA2 111716Z 23011KT 38/12 A3011 RMK A01 T03820122  RH  021%=      5-min Rain = 0
KHA2 111717Z 21011KT 39/13 A3011 RMK A01 T03860134  RH  022%=      5-min Rain = 0
KHA2 111718Z 22012KT 40/13 A3011 RMK A01 T03950133  RH  021%=      5-min Rain = 0
KHA2 111719Z 21012KT 40/13 A3011 RMK A01 T03950133  RH  021%=      5-min Rain = 0
KHA2 111720Z 22009KT 39/14 A3011 RMK A01 T03910135  RH  022%=      5-min Rain = 0
KHA2 111721Z 23011KT 39/13 A3011 RMK A01 T03880130  RH  022%=      5-min Rain = 0
KHA2 111722Z 21013KT 39/12 A3011 RMK A01 T03880117  RH  020%=      5-min Rain = 0
KHA2 111723Z 21011KT 39/12 A3011 RMK A01 T03890115  RH  020%=      5-min Rain = 0
KHA2 111724Z 22011KT 39/13 A3011 RMK A01 T03900128  RH  021%=      5-min Rain = 0
KHA2 111725Z 21013KT 39/13 A3011 RMK A01 T03910130  RH  021%=      5-min Rain = 0
KHA2 111726Z 22014KT 39/13 A3011 RMK A01 T03890128  RH  021%=      5-min Rain = 0
KHA2 111727Z 24012KT 39/13 A3011 RMK A01 T03880127  RH  021%=      5-min Rain = 0
KHA2 111728Z 24009KT 39/13 A3011 RMK A01 T03850128  RH  022%=      5-min Rain = 0
KHA2 111729Z 23008KT 39/13 A3011 RMK A01 T03850128  RH  022%=      5-min Rain = 0
KHA2 111730Z 22013KT 39/12 A3011 RMK A01 T03870123  RH  021%=      5-min Rain = 0
KHA2 111731Z 21012KT 39/12 A3011 RMK A01 T03900120  RH  020%=      5-min Rain = 0
KHA2 111732Z 22009KT 39/12 A3011 RMK A01 T03890122  RH  020%=      5-min Rain = 0
KHA2 111733Z 21011KT 39/12 A3011 RMK A01 T03890122  RH  020%=      5-min Rain = 0
KHA2 111734Z 20015G21KT 39/10 A3011 RMK A01 T03920103  RH  018%=      5-min Rain = 0
KHA2 111735Z 21011KT 39/10 A3011 RMK A01 T03940101  RH  017%=      5-min Rain = 0
KHA2 111736Z 22012KT 40/10 A3011 RMK A01 T03950104  RH  018%=      5-min Rain = 0
KHA2 111737Z 22013KT 39/11 A3011 RMK A01 T03920113  RH  019%=      5-min Rain = 0
KHA2 111738Z 21012KT 39/12 A301 RMK A01 T03910119  RH  020%=      5-min Rain = 0
KHA2 111739Z 20013KT 39/12 A301 RMK A01 T03930120  RH  020%=      5-min Rain = 0
KHA2 111740Z 20013KT 39/13 A301 RMK A01 T03930128  RH  021%=      5-min Rain = 0
KHA2 111741Z 22013KT 40/12 A301 RMK A01 T03960121  RH  020%=      5-min Rain = 0
KHA2 111742Z 22010KT 40/12 A301 RMK A01 T03970122  RH  020%=      5-min Rain = 0
KHA2 111743Z 21011KT 40/11 A301 RMK A01 T03980109  RH  018%=      5-min Rain = 0
KHA2 111744Z 21010KT 40/11 A301 RMK A01 T04010108  RH  017%=      5-min Rain = 0
KHA2 111745Z 23013KT 40/11 A301 RMK A01 T04010113  RH  018%=      5-min Rain = 0
KHA2 111746Z 23014KT 40/11 A301 RMK A01 T03970108  RH  018%=      5-min Rain = 0
KHA2 111747Z 21015KT 40/10 A301 RMK A01 T03950095  RH  017%=      5-min Rain = 0
KHA2 111748Z 21013KT 39/11 A301 RMK A01 T03940107  RH  018%=      5-min Rain = 0
KHA2 111749Z 21015KT 39/11 A301 RMK A01 T03940112  RH  019%=      5-min Rain = 0
KHA2 111750Z 21015KT 39/11 A301 RMK A01 T03940108  RH  018%=      5-min Rain = 0
KHA2 111751Z 21011KT 40/10 A301 RMK A01 T03950100  RH  017%=      5-min Rain = 0
KHA2 111752Z 23015G20KT 40/11 A301 RMK A01 T03950108  RH  018%=      5-min Rain = 0
KHA2 111753Z 22014G19KT 40/08 A301 RMK A01 T03980084  RH  015%=      5-min Rain = 0
KHA2 111754Z 21011KT 40/08 A301 RMK A01 T03970076  RH  014%=      5-min Rain = 0
KHA2 111755Z 21010G15KT 40/11 A301 RMK A01 T03980107  RH  018%=      5-min Rain = 0
KHA2 111756Z 21009KT 40/11 A301 RMK A01 T03960111  RH  018%=      5-min Rain = 0
KHA2 111757Z 21012KT 40/10 A301 RMK A01 T03950100  RH  017%=      5-min Rain = 0
KHA2 111758Z 19017KT 40/10 A301 RMK A01 T03980099  RH  017%=      5-min Rain = 0
KHA2 111759Z 21016KT 40/09 A301 RMK A01 T04000086  RH  015%=      5-min Rain = 0
KHA2 111800Z 23015KT 40/08 A301 RMK A01 T04020076  RH  014%=      5-min Rain = 0
KHA2 111801Z 23012KT 40/07 A301 RMK A01 T04000068  RH  013%=      5-min Rain = 0
KHA2 111802Z 22009KT 40/09 A301 RMK A01 T03980086  RH  015%=      5-min Rain = 0
KHA2 111803Z 23014KT 40/08 A301 RMK A01 T03960077  RH  015%=      5-min Rain = 0
KHA2 111804Z 23015KT 40/07 A301 RMK A01 T03990070  RH  014%=      5-min Rain = 0
KHA2 111805Z 22014KT 40/07 A301 RMK A01 T04020070  RH  013%=      5-min Rain = 0
KHA2 111806Z 21016KT 40/08 A301 RMK A01 T04040081  RH  014%=      5-min Rain = 0
KHA2 111807Z 19015G20KT 40/08 A301 RMK A01 T04000076  RH  014%=      5-min Rain = 0
KHA2 111808Z 20014KT 40/07 A301 RMK A01 T04000074  RH  014%=      5-min Rain = 0
KHA2 111809Z 22015KT 40/08 A301 RMK A01 T04010080  RH  015%=      5-min Rain = 0
KHA2 111810Z 23012KT 40/07 A301 RMK A01 T04040074  RH  014%=      5-min Rain = 0
KHA2 111811Z 22016KT 41/07 A301 RMK A01 T04060067  RH  013%=      5-min Rain = 0
KHA2 111812Z 23018KT 41/06 A301 RMK A01 T04070059  RH  012%=      5-min Rain = 0
KHA2 111813Z 24017KT 40/05 A301 RMK A01 T04030054  RH  012%=      5-min Rain = 0
KHA2 111814Z 24017KT 40/06 A301 RMK A01 T03990056  RH  012%=      5-min Rain = 0
KHA2 111815Z 23019KT 40/07 A301 RMK A01 T04000065  RH  013%=      5-min Rain = 0
KHA2 111816Z 23015KT 40/07 A301 RMK A01 T04010071  RH  014%=      5-min Rain = 0
KHA2 111817Z 20014KT 40/08 A301 RMK A01 T04010077  RH  014%=      5-min Rain = 0
KHA2 111818Z 20011KT 40/09 A301 RMK A01 T03990093  RH  016%=      5-min Rain = 0
KHA2 111819Z 20009KT 40/09 A301 RMK A01 T03970086  RH  015%=      5-min Rain = 0
KHA2 111820Z 21015G20KT 40/09 A301 RMK A01 T04010090  RH  015%=      5-min Rain = 0
KHA2 111821Z 20017KT 41/08 A301 RMK A01 T04050084  RH  015%=      5-min Rain = 0
KHA2 111822Z 20016KT 40/08 A301 RMK A01 T04040082  RH  014%=      5-min Rain = 0
KHA2 111823Z 22013KT 40/08 A301 RMK A01 T04010080  RH  014%=      5-min Rain = 0
KHA2 111824Z 22012KT 40/08 A301 RMK A01 T04000080  RH  015%=      5-min Rain = 0
KHA2 111825Z 20013KT 40/09 A301 RMK A01 T04010086  RH  015%=      5-min Rain = 0
KHA2 111826Z 18017KT 41/09 A301 RMK A01 T04060086  RH  015%=      5-min Rain = 0
KHA2 111827Z 18016KT 41/09 A301 RMK A01 T04060086  RH  015%=      5-min Rain = 0
KHA2 111828Z 19013KT 40/08 A301 RMK A01 T04030083  RH  015%=      5-min Rain = 0
KHA2 111829Z 21013KT 40/08 A301 RMK A01 T04030083  RH  015%=      5-min Rain = 0
KHA2 111830Z 21014KT 41/09 A301 RMK A01 T04050085  RH  015%=      5-min Rain = 0
KHA2 111831Z 21012KT 41/09 A301 RMK A01 T04050085  RH  015%=      5-min Rain = 0
KHA2 111832Z 21015KT 41/09 A301 RMK A01 T04080089  RH  015%=      5-min Rain = 0
KHA2 111833Z 22011G17KT 41/08 A301 RMK A01 T04080083  RH  014%=      5-min Rain = 0
KHA2 111834Z 22011KT 40/08 A301 RMK A01 T04000082  RH  015%=      5-min Rain = 0
KHA2 111835Z 23012KT 40/09 A3009 RMK A01 T04000086  RH  015%=      5-min Rain = 0
KHA2 111836Z 21013G18KT 40/09 A3009 RMK A01 T04000087  RH  015%=      5-min Rain = 0
KHA2 111837Z 20018KT 41/09 A3009 RMK A01 T04060089  RH  015%=      5-min Rain = 0
KHA2 111838Z 20018KT 41/09 A3009 RMK A01 T04080086  RH  014%=      5-min Rain = 0
KHA2 111839Z 20018KT 41/09 A3009 RMK A01 T04080088  RH  015%=      5-min Rain = 0
KHA2 111840Z 21015KT 41/09 A3009 RMK A01 T04090090  RH  015%=      5-min Rain = 0
KHA2 111841Z 20017G22KT 41/09 A3009 RMK A01 T04100091  RH  015%=      5-min Rain = 0
KHA2 111842Z 20016KT 41/09 A3009 RMK A01 T04110088  RH  014%=      5-min Rain = 0
KHA2 111843Z 19016KT 41/09 A3009 RMK A01 T04090089  RH  015%=      5-min Rain = 0
KHA2 111844Z 19015KT 41/09 A3009 RMK A01 T04070089  RH  015%=      5-min Rain = 0
KHA2 111845Z 19014KT 41/09 A3009 RMK A01 T04060091  RH  015%=      5-min Rain = 0
KHA2 111846Z 19014KT 40/09 A3009 RMK A01 T04040092  RH  015%=      5-min Rain = 0
KHA2 111847Z 18014KT 41/09 A3009 RMK A01 T04060090  RH  015%=      5-min Rain = 0
KHA2 111848Z 18010KT 40/08 A3009 RMK A01 T04040084  RH  015%=      5-min Rain = 0
KHA2 111849Z 20014KT 40/09 A3009 RMK A01 T04030089  RH  015%=      5-min Rain = 0
KHA2 111850Z 20017KT 41/09 A3009 RMK A01 T04050090  RH  015%=      5-min Rain = 0
KHA2 111851Z 21017KT 41/09 A3009 RMK A01 T04080092  RH  015%=      5-min Rain = 0
KHA2 111852Z 19018KT 41/09 A3009 RMK A01 T04090091  RH  015%=      5-min Rain = 0
KHA2 111853Z 18018KT 41/09 A3009 RMK A01 T04060087  RH  015%=      5-min Rain = 0
KHA2 111854Z 19015KT 40/09 A3009 RMK A01 T04010087  RH  015%=      5-min Rain = 0
KHA2 111855Z 18015KT 40/09 A3009 RMK A01 T04010091  RH  016%=      5-min Rain = 0
KHA2 111856Z 18017KT 40/09 A3009 RMK A01 T04020093  RH  016%=      5-min Rain = 0
KHA2 111857Z 17013KT 40/09 A3009 RMK A01 T04040092  RH  015%=      5-min Rain = 0
KHA2 111858Z 21013KT 40/09 A3009 RMK A01 T04020089  RH  015%=      5-min Rain = 0
KHA2 111859Z 22013KT 40/09 A3009 RMK A01 T04010085  RH  015%=      5-min Rain = 0
KHA2 111900Z 22016KT 40/09 A3009 RMK A01 T04030085  RH  015%=      5-min Rain = 0
KHA2 111901Z 22017KT 41/09 A3008 RMK A01 T04050085  RH  015%=      5-min Rain = 0
KHA2 111902Z 21015KT 41/09 A3008 RMK A01 T04050087  RH  015%=      5-min Rain = 0
KHA2 111903Z 21016KT 41/09 A3008 RMK A01 T04090088  RH  015%=      5-min Rain = 0
KHA2 111904Z 22016KT 41/09 A3008 RMK A01 T04090085  RH  014%=      5-min Rain = 0
KHA2 111905Z 23013KT 41/08 A3008 RMK A01 T04080084  RH  014%=      5-min Rain = 0
KHA2 111906Z 19011KT 41/09 A3008 RMK A01 T04080088  RH  015%=      5-min Rain = 0
KHA2 111907Z 19013KT 41/09 A3008 RMK A01 T04090089  RH  015%=      5-min Rain = 0
KHA2 111908Z 19012KT 41/09 A3008 RMK A01 T04090088  RH  015%=      5-min Rain = 0
KHA2 111909Z 18013KT 41/09 A3008 RMK A01 T04080088  RH  015%=      5-min Rain = 0
KHA2 111910Z 19015G20KT 41/09 A3008 RMK A01 T04070092  RH  015%=      5-min Rain = 0
KHA2 111911Z 18014G19KT 41/09 A3008 RMK A01 T04090088  RH  015%=      5-min Rain = 0
KHA2 111912Z 20012KT 41/09 A3008 RMK A01 T04070091  RH  015%=      5-min Rain = 0
KHA2 111913Z 21014KT 41/09 A3008 RMK A01 T04060088  RH  015%=      5-min Rain = 0
KHA2 111914Z 20018KT 41/09 A3008 RMK A01 T04050091  RH  015%=      5-min Rain = 0
KHA2 111915Z 20018KT 41/09 A3008 RMK A01 T04080090  RH  015%=      5-min Rain = 0
KHA2 111916Z 20016KT 41/09 A3008 RMK A01 T04080089  RH  015%=      5-min Rain = 0
KHA2 111917Z 20015KT 41/09 A3008 RMK A01 T04060090  RH  015%=      5-min Rain = 0
KHA2 111918Z 21017KT 41/09 A3008 RMK A01 T04080088  RH  015%=      5-min Rain = 0
KHA2 111919Z 20013G18KT 41/09 A3008 RMK A01 T04080086  RH  014%=      5-min Rain = 0
KHA2 111920Z 21011G16KT 41/09 A3008 RMK A01 T04060085  RH  015%=      5-min Rain = 0
KHA2 111921Z 20013KT 41/09 A3008 RMK A01 T04070088  RH  015%=      5-min Rain = 0
KHA2 111922Z 21013G18KT 41/09 A3008 RMK A01 T04100090  RH  015%=      5-min Rain = 0
KHA2 111923Z 22016G21KT 41/09 A3007 RMK A01 T04130085  RH  014%=      5-min Rain = 0
KHA2 111924Z 21017KT 41/09 A3007 RMK A01 T04110086  RH  014%=      5-min Rain = 0
KHA2 111925Z 21011G16KT 41/08 A3007 RMK A01 T04120083  RH  014%=      5-min Rain = 0
KHA2 111926Z 19015KT 41/08 A3007 RMK A01 T04080083  RH  014%=      5-min Rain = 0
KHA2 111927Z 17016KT 41/09 A3007 RMK A01 T04070085  RH  014%=      5-min Rain = 0
KHA2 111928Z 18014KT 41/09 A3007 RMK A01 T04060088  RH  015%=      5-min Rain = 0
KHA2 111929Z 17012KT 41/09 A3007 RMK A01 T04060090  RH  015%=      5-min Rain = 0
KHA2 111930Z 19017G23KT 41/10 A3007 RMK A01 T04060095  RH  016%=      5-min Rain = 0
KHA2 111931Z 19021KT 41/09 A3007 RMK A01 T04100090  RH  015%=      5-min Rain = 0
KHA2 111932Z 19017G22KT 41/09 A3007 RMK A01 T04090091  RH  015%=      5-min Rain = 0
KHA2 111933Z 20015KT 41/09 A3007 RMK A01 T04090090  RH  015%=      5-min Rain = 0
KHA2 111934Z 22012KT 41/09 A3007 RMK A01 T04090089  RH  015%=      5-min Rain = 0
KHA2 111935Z 21019G24KT 41/09 A3007 RMK A01 T04090089  RH  015%=      5-min Rain = 0
KHA2 111936Z 21016G21KT 41/09 A3007 RMK A01 T04090088  RH  015%=      5-min Rain = 0
KHA2 111937Z 20014KT 41/09 A3007 RMK A01 T04070089  RH  015%=      5-min Rain = 0
KHA2 111938Z 19012KT 41/09 A3007 RMK A01 T04060090  RH  015%=      5-min Rain = 0
KHA2 111939Z 19014KT 41/09 A3007 RMK A01 T04050088  RH  015%=      5-min Rain = 0
KHA2 111940Z 18012KT 40/09 A3007 RMK A01 T04030090  RH  015%=      5-min Rain = 0
KHA2 111941Z 17014KT 41/09 A3007 RMK A01 T04050093  RH  015%=      5-min Rain = 0
KHA2 111942Z 17015KT 41/09 A3007 RMK A01 T04050094  RH  016%=      5-min Rain = 0
KHA2 111943Z 19013KT 40/09 A3007 RMK A01 T04040093  RH  016%=      5-min Rain = 0
KHA2 111944Z 20016KT 41/09 A3007 RMK A01 T04050094  RH  016%=      5-min Rain = 0
KHA2 111945Z 21015KT 41/09 A3007 RMK A01 T04100094  RH  015%=      5-min Rain = 0
KHA2 111946Z 22018KT 42/09 A3007 RMK A01 T04160091  RH  014%=      5-min Rain = 0
KHA2 111947Z 23015KT 41/08 A3007 RMK A01 T04100082  RH  014%=      5-min Rain = 0
KHA2 111948Z 22017KT 41/09 A3007 RMK A01 T04080087  RH  015%=      5-min Rain = 0
KHA2 111949Z 23012KT 41/09 A3007 RMK A01 T04120091  RH  015%=      5-min Rain = 0
KHA2 111950Z 21015KT 42/09 A3007 RMK A01 T04150088  RH  014%=      5-min Rain = 0
KHA2 111951Z 21011KT 41/09 A3007 RMK A01 T04130085  RH  014%=      5-min Rain = 0
KHA2 111952Z 23010KT 41/09 A3007 RMK A01 T04110086  RH  014%=      5-min Rain = 0
KHA2 111953Z 23010KT 41/09 A3007 RMK A01 T04110086  RH  014%=      5-min Rain = 0
KHA2 111954Z 21010KT 41/09 A3006 RMK A01 T04090086  RH  014%=      5-min Rain = 0
KHA2 111955Z 18011KT 41/09 A3006 RMK A01 T04100089  RH  015%=      5-min Rain = 0
KHA2 111956Z 20009KT 41/09 A3006 RMK A01 T04090091  RH  015%=      5-min Rain = 0
KHA2 111957Z 20013G18KT 41/09 A3006 RMK A01 T04100092  RH  015%=      5-min Rain = 0
KHA2 111958Z 22017KT 41/09 A3006 RMK A01 T04120093  RH  015%=      5-min Rain = 0
KHA2 111959Z 19017G23KT 41/10 A3006 RMK A01 T04140097  RH  015%=      5-min Rain = 0
KHA2 112000Z 19016KT 42/09 A3006 RMK A01 T04170094  RH  015%=      5-min Rain = 0
KHA2 112001Z 18013G18KT 41/09 A3006 RMK A01 T04130090  RH  014%=      5-min Rain = 0
KHA2 112002Z 19012KT 41/09 A3006 RMK A01 T04090091  RH  015%=      5-min Rain = 0
KHA2 112003Z 18016G22KT 41/09 A3006 RMK A01 T04100094  RH  015%=      5-min Rain = 0
KHA2 112004Z 18014KT 41/09 A3006 RMK A01 T04090091  RH  015%=      5-min Rain = 0
KHA2 112005Z 18012KT 41/10 A3006 RMK A01 T04100096  RH  015%=      5-min Rain = 0
KHA2 112006Z 20011KT 41/09 A3006 RMK A01 T04140093  RH  015%=      5-min Rain = 0
KHA2 112007Z 20007KT 41/09 A3006 RMK A01 T04130091  RH  015%=      5-min Rain = 0
KHA2 112008Z 20008KT 41/09 A3006 RMK A01 T04130090  RH  015%=      5-min Rain = 0
KHA2 112009Z 20012G19KT 41/09 A3006 RMK A01 T04110091  RH  015%=      5-min Rain = 0
KHA2 112010Z 19014KT 41/09 A3006 RMK A01 T04110093  RH  015%=      5-min Rain = 0
KHA2 112011Z 18012KT 41/10 A3006 RMK A01 T04120095  RH  015%=      5-min Rain = 0
KHA2 112012Z 17013KT 41/10 A3006 RMK A01 T04120098  RH  015%=      5-min Rain = 0
KHA2 112013Z 20012KT 41/10 A3006 RMK A01 T04140095  RH  015%=      5-min Rain = 0
KHA2 112014Z 22016KT 41/09 A3006 RMK A01 T04140093  RH  015%=      5-min Rain = 0
KHA2 112015Z 23016KT 41/09 A3006 RMK A01 T04120088  RH  014%=      5-min Rain = 0
KHA2 112016Z 22015KT 41/09 A3006 RMK A01 T04120092  RH  015%=      5-min Rain = 0
KHA2 112017Z 19012KT 42/10 A3006 RMK A01 T04200100  RH  015%=      5-min Rain = 0
KHA2 112018Z 23012KT 42/10 A3006 RMK A01 T04220095  RH  014%=      5-min Rain = 0
KHA2 112019Z 25011KT 42/09 A3006 RMK A01 T04160087  RH  014%=      5-min Rain = 0
KHA2 112020Z 25015KT 41/09 A3006 RMK A01 T04120087  RH  014%=      5-min Rain = 0
KHA2 112021Z 26015KT 41/09 A3006 RMK A01 T04120087  RH  014%=      5-min Rain = 0
KHA2 112022Z 20016KT 41/09 A3006 RMK A01 T04130093  RH  015%=      5-min Rain = 0
KHA2 112023Z 20018KT 41/10 A3006 RMK A01 T04140095  RH  015%=      5-min Rain = 0
KHA2 112024Z 20015KT 41/09 A3006 RMK A01 T04120092  RH  015%=      5-min Rain = 0
KHA2 112025Z 20016KT 41/09 A3006 RMK A01 T04100093  RH  015%=      5-min Rain = 0
KHA2 112026Z 21012KT 41/09 A3006 RMK A01 T04110090  RH  015%=      5-min Rain = 0
KHA2 112027Z 21007KT 41/09 A3006 RMK A01 T04090089  RH  015%=      5-min Rain = 0
KHA2 112028Z 22006KT 41/09 A3006 RMK A01 T04080088  RH  015%=      5-min Rain = 0
KHA2 112029Z 21007KT 41/09 A3006 RMK A01 T04070086  RH  015%=      5-min Rain = 0
KHA2 112030Z 21013KT 41/09 A3006 RMK A01 T04060091  RH  015%=      5-min Rain = 0
KHA2 112031Z 21019KT 41/10 A3005 RMK A01 T04120098  RH  015%=      5-min Rain = 0
KHA2 112032Z 20014KT 41/09 A3006 RMK A01 T04140094  RH  015%=      5-min Rain = 0
KHA2 112033Z 20013KT 41/10 A3005 RMK A01 T04120095  RH  015%=      5-min Rain = 0
KHA2 112034Z 21012KT 42/10 A3005 RMK A01 T04150097  RH  015%=      5-min Rain = 0
KHA2 112035Z 22012KT 42/09 A3005 RMK A01 T04160085  RH  014%=      5-min Rain = 0
KHA2 112036Z 23009KT 41/08 A3005 RMK A01 T04110084  RH  014%=      5-min Rain = 0
KHA2 112037Z 23008KT 41/08 A3005 RMK A01 T04110084  RH  014%=      5-min Rain = 0
KHA2 112038Z 23009G14KT 41/08 A3005 RMK A01 T04100083  RH  014%=      5-min Rain = 0
KHA2 112039Z 21012KT 41/09 A3005 RMK A01 T04110091  RH  015%=      5-min Rain = 0
KHA2 112040Z 20011KT 41/10 A3005 RMK A01 T04120095  RH  015%=      5-min Rain = 0
KHA2 112041Z 21015KT 42/09 A3005 RMK A01 T04150094  RH  015%=      5-min Rain = 0
KHA2 112042Z 23014KT 42/09 A3005 RMK A01 T04160091  RH  014%=      5-min Rain = 0
KHA2 112043Z 19014G21KT 41/09 A3005 RMK A01 T04140093  RH  015%=      5-min Rain = 0
KHA2 112044Z 19021KT 42/11 A3005 RMK A01 T04160107  RH  016%=      5-min Rain = 0
KHA2 112045Z 19014G19KT 42/12 A3005 RMK A01 T04150122  RH  018%=      5-min Rain = 0
KHA2 112046Z 22014G20KT 41/11 A3004 RMK A01 T04120114  RH  017%=      5-min Rain = 0
KHA2 112047Z 22019KT 41/09 A3004 RMK A01 T04120092  RH  015%=      5-min Rain = 0
KHA2 112048Z 23018KT 41/09 A3004 RMK A01 T04130089  RH  014%=      5-min Rain = 0
KHA2 112049Z 25013KT 41/09 A3004 RMK A01 T04120087  RH  014%=      5-min Rain = 0
KHA2 112050Z 23011G16KT 41/09 A3004 RMK A01 T04100086  RH  014%=      5-min Rain = 0
KHA2 112051Z 20018KT 41/09 A3004 RMK A01 T04110093  RH  015%=      5-min Rain = 0
KHA2 112052Z 20016KT 41/09 A3004 RMK A01 T04130091  RH  015%=      5-min Rain = 0
KHA2 112053Z 18012KT 41/09 A3004 RMK A01 T04110092  RH  015%=      5-min Rain = 0
KHA2 112054Z 19013KT 41/10 A3004 RMK A01 T04090098  RH  016%=      5-min Rain = 0
KHA2 112055Z 19023G30KT 41/12 A3004 RMK A01 T04100116  RH  018%=      5-min Rain = 0
KHA2 112056Z 18021G26KT 41/12 A3004 RMK A01 T04130121  RH  018%=      5-min Rain = 0
KHA2 112057Z 17020KT 41/12 A3004 RMK A01 T04130119  RH  018%=      5-min Rain = 0
KHA2 112058Z 17015KT 41/12 A3004 RMK A01 T04070115  RH  018%=      5-min Rain = 0
KHA2 112059Z 17016KT 41/12 A3004 RMK A01 T04060120  RH  018%=      5-min Rain = 0
KHA2 112100Z 18018G23KT 41/12 A3003 RMK A01 T04100123  RH  018%=      5-min Rain = 0
KHA2 112101Z 19024KT 41/11 A3003 RMK A01 T04130114  RH  017%=      5-min Rain = 0
KHA2 112102Z 19021KT 41/11 A3003 RMK A01 T04110111  RH  017%=      5-min Rain = 0
KHA2 112103Z 19021G27KT 41/11 A3003 RMK A01 T04110114  RH  017%=      5-min Rain = 0
KHA2 112104Z 19025G35KT 41/11 A3003 RMK A01 T04130113  RH  017%=      5-min Rain = 0
KHA2 112105Z 19024KT 41/11 A3003 RMK A01 T04100112  RH  017%=      5-min Rain = 0
KHA2 112106Z 19023KT 41/12 A3003 RMK A01 T04060116  RH  018%=      5-min Rain = 0
KHA2 112107Z 20018KT 41/11 A3003 RMK A01 T04050114  RH  018%=      5-min Rain = 0
KHA2 112108Z 19017G22KT 41/12 A3003 RMK A01 T04060116  RH  018%=      5-min Rain = 0
KHA2 112109Z 19020G25KT 41/11 A3003 RMK A01 T04090113  RH  017%=      5-min Rain = 0
KHA2 112110Z 18017KT 41/12 A3003 RMK A01 T04090115  RH  017%=      5-min Rain = 0
KHA2 112111Z 19021KT 41/12 A3003 RMK A01 T04090115  RH  018%=      5-min Rain = 0
KHA2 112112Z 19017KT 41/12 A3003 RMK A01 T04070115  RH  018%=      5-min Rain = 0
KHA2 112113Z 19019G27KT 41/12 A3003 RMK A01 T04090119  RH  018%=      5-min Rain = 0
KHA2 112114Z 19018G23KT 41/11 A3003 RMK A01 T04100113  RH  017%=      5-min Rain = 0
KHA2 112115Z 19017G22KT 41/11 A3003 RMK A01 T04080112  RH  017%=      5-min Rain = 0
KHA2 112116Z 18022KT 41/11 A3003 RMK A01 T04070113  RH  017%=      5-min Rain = 0
KHA2 112117Z 19018KT 41/11 A3003 RMK A01 T04060109  RH  017%=      5-min Rain = 0
KHA2 112118Z 17017KT 41/11 A3003 RMK A01 T04050114  RH  018%=      5-min Rain = 0
KHA2 112119Z 19019KT 41/12 A3003 RMK A01 T04060115  RH  018%=      5-min Rain = 0
KHA2 112120Z 19017KT 41/11 A3003 RMK A01 T04090114  RH  017%=      5-min Rain = 0
KHA2 112121Z 20020G27KT 41/11 A3003 RMK A01 T04090114  RH  017%=      5-min Rain = 0
KHA2 112122Z 19022G29KT 41/12 A3003 RMK A01 T04110116  RH  017%=      5-min Rain = 0
KHA2 112123Z 19024KT 41/11 A3003 RMK A01 T04120111  RH  017%=      5-min Rain = 0
KHA2 112124Z 18020KT 41/11 A3003 RMK A01 T04050110  RH  017%=      5-min Rain = 0
KHA2 112125Z 17016G21KT 40/11 A3003 RMK A01 T04030110  RH  018%=      5-min Rain = 0
KHA2 112126Z 18017G22KT 40/11 A3003 RMK A01 T04030112  RH  018%=      5-min Rain = 0
KHA2 112127Z 19020KT 41/11 A3003 RMK A01 T04060109  RH  017%=      5-min Rain = 0
KHA2 112128Z 17019KT 41/11 A3003 RMK A01 T04060108  RH  017%=      5-min Rain = 0
KHA2 112129Z 17019KT 41/10 A3003 RMK A01 T04050103  RH  017%=      5-min Rain = 0
KHA2 112130Z 17018KT 40/10 A3003 RMK A01 T04040103  RH  017%=      5-min Rain = 0
KHA2 112131Z 18020G27KT 40/11 A3003 RMK A01 T04040106  RH  017%=      5-min Rain = 0
KHA2 112132Z 19022G27KT 41/11 A3002 RMK A01 T04060105  RH  017%=      5-min Rain = 0
KHA2 112133Z 19019KT 41/11 A3002 RMK A01 T04060105  RH  017%=      5-min Rain = 0
KHA2 112134Z 18019KT 41/11 A3002 RMK A01 T04070105  RH  017%=      5-min Rain = 0
KHA2 112135Z 19020KT 41/11 A3002 RMK A01 T04070106  RH  017%=      5-min Rain = 0
KHA2 112136Z 18021KT 41/11 A3002 RMK A01 T04070107  RH  017%=      5-min Rain = 0
KHA2 112137Z 18024KT 41/10 A3002 RMK A01 T04070104  RH  016%=      5-min Rain = 0
KHA2 112138Z 18019G24KT 41/10 A3002 RMK A01 T04050103  RH  017%=      5-min Rain = 0
KHA2 112139Z 21016KT 41/10 A3002 RMK A01 T04050103  RH  016%=      5-min Rain = 0
KHA2 112140Z 18015G22KT 41/10 A3002 RMK A01 T04060104  RH  017%=      5-min Rain = 0
KHA2 112141Z 17018KT 41/11 A3002 RMK A01 T04090106  RH  017%=      5-min Rain = 0
KHA2 112142Z 18018KT 41/10 A3002 RMK A01 T04100104  RH  016%=      5-min Rain = 0
KHA2 112143Z 18020G25KT 41/10 A3002 RMK A01 T04090103  RH  016%=      5-min Rain = 0
KHA2 112144Z 16019KT 41/10 A3002 RMK A01 T04060099  RH  016%=      5-min Rain = 0
KHA2 112145Z 19022G28KT 41/10 A3002 RMK A01 T04050102  RH  016%=      5-min Rain = 0
KHA2 112146Z 19022KT 41/10 A3002 RMK A01 T04070101  RH  016%=      5-min Rain = 0
KHA2 112147Z 18021KT 41/10 A3002 RMK A01 T04060102  RH  016%=      5-min Rain = 0
KHA2 112148Z 18016KT 41/10 A3002 RMK A01 T04050103  RH  017%=      5-min Rain = 0
KHA2 112149Z 18017KT 41/10 A3002 RMK A01 T04060103  RH  016%=      5-min Rain = 0
KHA2 112150Z 17018KT 41/10 A3002 RMK A01 T04070103  RH  016%=      5-min Rain = 0
KHA2 112151Z 18017KT 41/10 A3002 RMK A01 T04050102  RH  016%=      5-min Rain = 0
KHA2 112152Z 18015KT 41/10 A3002 RMK A01 T04060103  RH  016%=      5-min Rain = 0
KHA2 112153Z 19017KT 41/10 A3002 RMK A01 T04070103  RH  016%=      5-min Rain = 0
KHA2 112154Z 18018G24KT 41/10 A3002 RMK A01 T04090102  RH  016%=      5-min Rain = 0
KHA2 112155Z 18020KT 41/10 A3002 RMK A01 T04080103  RH  016%=      5-min Rain = 0
KHA2 112156Z 19022KT 41/10 A3002 RMK A01 T04070100  RH  016%=      5-min Rain = 0
KHA2 112157Z 19017KT 41/10 A3002 RMK A01 T04050099  RH  016%=      5-min Rain = 0
KHA2 112158Z 18014G19KT 41/10 A3002 RMK A01 T04070104  RH  016%=      5-min Rain = 0
KHA2 112159Z 17019KT 41/10 A3002 RMK A01 T04110104  RH  016%=      5-min Rain = 0
KHA2 112200Z 18020KT 41/10 A3002 RMK A01 T04090103  RH  016%=      5-min Rain = 0
KHA2 112201Z 18021KT 41/10 A3002 RMK A01 T04080102  RH  016%=      5-min Rain = 0
KHA2 112202Z 18022KT 41/10 A3002 RMK A01 T04050100  RH  016%=      5-min Rain = 0
KHA2 112203Z 18021G26KT 41/10 A3001 RMK A01 T04050099  RH  016%=      5-min Rain = 0
KHA2 112204Z 18019KT 41/10 A3001 RMK A01 T04050101  RH  016%=      5-min Rain = 0
KHA2 112205Z 18019G24KT 41/10 A3001 RMK A01 T04060101  RH  016%=      5-min Rain = 0
KHA2 112206Z 19019KT 41/10 A3002 RMK A01 T04070103  RH  016%=      5-min Rain = 0
KHA2 112207Z 18021KT 41/10 A3001 RMK A01 T04100103  RH  016%=      5-min Rain = 0
KHA2 112208Z 18021KT 41/10 A3001 RMK A01 T04080098  RH  016%=      5-min Rain = 0
KHA2 112209Z 17019G24KT 40/10 A3001 RMK A01 T04040099  RH  016%=      5-min Rain = 0
KHA2 112210Z 18018G24KT 40/10 A3001 RMK A01 T04030098  RH  016%=      5-min Rain = 0
KHA2 112211Z 17017KT 40/10 A3001 RMK A01 T04010100  RH  017%=      5-min Rain = 0
KHA2 112212Z 18018KT 41/10 A3001 RMK A01 T04050103  RH  016%=      5-min Rain = 0
KHA2 112213Z 19016KT 41/10 A3001 RMK A01 T04090102  RH  016%=      5-min Rain = 0
KHA2 112214Z 19021G26KT 41/10 A3001 RMK A01 T04110103  RH  016%=      5-min Rain = 0
KHA2 112215Z 19021KT 41/10 A3001 RMK A01 T04100100  RH  016%=      5-min Rain = 0
KHA2 112216Z 18019KT 41/10 A3001 RMK A01 T04050100  RH  016%=      5-min Rain = 0
KHA2 112217Z 17017KT 41/11 A3001 RMK A01 T04050106  RH  017%=      5-min Rain = 0
KHA2 112218Z 17018G24KT 41/10 A3001 RMK A01 T04070103  RH  016%=      5-min Rain = 0
KHA2 112219Z 17019KT 41/10 A3001 RMK A01 T04050103  RH  017%=      5-min Rain = 0
KHA2 112220Z 17023KT 41/11 A3001 RMK A01 T04070105  RH  017%=      5-min Rain = 0
KHA2 112221Z 17018G24KT 41/10 A3001 RMK A01 T04050102  RH  016%=      5-min Rain = 0
KHA2 112222Z 18023KT 40/10 A3001 RMK A01 T04040104  RH  017%=      5-min Rain = 0
KHA2 112223Z 19019KT 41/10 A3001 RMK A01 T04060104  RH  017%=      5-min Rain = 0
KHA2 112224Z 18020KT 41/10 A3001 RMK A01 T04090104  RH  016%=      5-min Rain = 0
KHA2 112225Z 18018KT 41/11 A3001 RMK A01 T04100106  RH  016%=      5-min Rain = 0
KHA2 112226Z 18021KT 41/11 A3001 RMK A01 T04100106  RH  016%=      5-min Rain = 0
KHA2 112227Z 18020KT 41/10 A3001 RMK A01 T04070102  RH  016%=      5-min Rain = 0
KHA2 112228Z 17018KT 40/10 A30 RMK A01 T04040103  RH  017%=      5-min Rain = 0
KHA2 112229Z 17020KT 41/10 A30 RMK A01 T04050104  RH  017%=      5-min Rain = 0
KHA2 112230Z 17023G30KT 41/10 A30 RMK A01 T04050103  RH  017%=      5-min Rain = 0
KHA2 112231Z 18023KT 41/10 A30 RMK A01 T04050101  RH  016%=      5-min Rain = 0
KHA2 112232Z 18025KT 40/10 A30 RMK A01 T04040099  RH  016%=      5-min Rain = 0
KHA2 112233Z 18022KT 40/10 A30 RMK A01 T04040099  RH  016%=      5-min Rain = 0
KHA2 112234Z 19021KT 40/10 A30 RMK A01 T04040097  RH  016%=      5-min Rain = 0
KHA2 112235Z 19016KT 40/10 A30 RMK A01 T04030098  RH  016%=      5-min Rain = 0
KHA2 112236Z 19015KT 40/10 A30 RMK A01 T04030100  RH  016%=      5-min Rain = 0
KHA2 112237Z 19015KT 41/10 A30 RMK A01 T04050099  RH  016%=      5-min Rain = 0
KHA2 112238Z 18015KT 41/10 A30 RMK A01 T04050102  RH  016%=      5-min Rain = 0
KHA2 112239Z 17020KT 41/10 A30 RMK A01 T04060104  RH  017%=      5-min Rain = 0
KHA2 112240Z 17021G26KT 41/10 A30 RMK A01 T04050104  RH  017%=      5-min Rain = 0
KHA2 112241Z 18021KT 41/10 A30 RMK A01 T04060104  RH  017%=      5-min Rain = 0
KHA2 112242Z 19017KT 41/10 A30 RMK A01 T04050103  RH  016%=      5-min Rain = 0
KHA2 112243Z 21018KT 41/10 A30 RMK A01 T04060099  RH  016%=      5-min Rain = 0
KHA2 112244Z 21018KT 41/10 A2999 RMK A01 T04070098  RH  016%=      5-min Rain = 0
KHA2 112245Z 19020KT 41/10 A2999 RMK A01 T04080100  RH  016%=      5-min Rain = 0
KHA2 112246Z 17022KT 41/10 A2999 RMK A01 T04060101  RH  016%=      5-min Rain = 0
KHA2 112247Z 18021KT 40/10 A2999 RMK A01 T04040101  RH  016%=      5-min Rain = 0
KHA2 112248Z 19020KT 40/10 A2999 RMK A01 T04040098  RH  016%=      5-min Rain = 0
KHA2 112249Z 19020KT 41/10 A2999 RMK A01 T04050098  RH  016%=      5-min Rain = 0
KHA2 112250Z 19020KT 41/10 A30 RMK A01 T04090096  RH  015%=      5-min Rain = 0
KHA2 112251Z 20019KT 41/09 A2999 RMK A01 T04070094  RH  015%=      5-min Rain = 0
KHA2 112252Z 20014KT 41/10 A30 RMK A01 T04050096  RH  016%=      5-min Rain = 0
KHA2 112253Z 21013KT 41/10 A2999 RMK A01 T04060095  RH  016%=      5-min Rain = 0
KHA2 112254Z 20017KT 41/10 A2999 RMK A01 T04070098  RH  016%=      5-min Rain = 0
KHA2 112255Z 20021KT 41/10 A2999 RMK A01 T04080095  RH  015%=      5-min Rain = 0
KHA2 112256Z 21017KT 41/09 A2999 RMK A01 T04070093  RH  015%=      5-min Rain = 0
KHA2 112257Z 20014KT 40/09 A2999 RMK A01 T04040092  RH  015%=      5-min Rain = 0
KHA2 112258Z 19015KT 40/10 A2999 RMK A01 T04040096  RH  016%=      5-min Rain = 0
KHA2 112259Z 18020KT 41/10 A2999 RMK A01 T04050100  RH  016%=      5-min Rain = 0
KHA2 112300Z 18020KT 40/10 A2999 RMK A01 T04040098  RH  016%=      5-min Rain = 0
KHA2 112301Z 18021KT 40/10 A2999 RMK A01 T04020097  RH  016%=      5-min Rain = 0
KHA2 112302Z 19018KT 40/10 A2999 RMK A01 T04010098  RH  016%=      5-min Rain = 0
KHA2 112303Z 19018G24KT 40/10 A2999 RMK A01 T04040098  RH  016%=      5-min Rain = 0
KHA2 112304Z 20018KT 41/10 A2999 RMK A01 T04050097  RH  016%=      5-min Rain = 0
KHA2 112305Z 19021KT 41/10 A2999 RMK A01 T04070099  RH  016%=      5-min Rain = 0
KHA2 112306Z 19021KT 41/10 A2999 RMK A01 T04060099  RH  016%=      5-min Rain = 0
KHA2 112307Z 20020KT 40/10 A2998 RMK A01 T04040099  RH  016%=      5-min Rain = 0
KHA2 112308Z 19020G25KT 40/10 A2999 RMK A01 T04040101  RH  016%=      5-min Rain = 0
KHA2 112309Z 19019G25KT 41/10 A2998 RMK A01 T04050101  RH  016%=      5-min Rain = 0
KHA2 112310Z 18019KT 40/10 A2998 RMK A01 T04040101  RH  016%=      5-min Rain = 0
KHA2 112311Z 19018KT 40/10 A2998 RMK A01 T04040102  RH  017%=      5-min Rain = 0
KHA2 112312Z 18019KT 41/10 A2998 RMK A01 T04050103  RH  017%=      5-min Rain = 0
KHA2 112313Z 19021G26KT 40/10 A2998 RMK A01 T04040102  RH  016%=      5-min Rain = 0
KHA2 112314Z 18019KT 40/10 A2998 RMK A01 T04030101  RH  016%=      5-min Rain = 0
KHA2 112315Z 18022G28KT 40/10 A2998 RMK A01 T04010100  RH  017%=      5-min Rain = 0
KHA2 112316Z 18023KT 40/10 A2998 RMK A01 T04010103  RH  017%=      5-min Rain = 0
KHA2 112317Z 20020KT 40/10 A2998 RMK A01 T04020104  RH  017%=      5-min Rain = 0
KHA2 112318Z 19019KT 41/10 A2998 RMK A01 T04060104  RH  017%=      5-min Rain = 0
KHA2 112319Z 19019G24KT 41/10 A2998 RMK A01 T04060099  RH  016%=      5-min Rain = 0
KHA2 112320Z 19023KT 41/10 A2998 RMK A01 T04050101  RH  016%=      5-min Rain = 0
KHA2 112321Z 18020KT 40/10 A2998 RMK A01 T04030102  RH  017%=      5-min Rain = 0
KHA2 112322Z 19020KT 40/10 A2998 RMK A01 T04020103  RH  017%=      5-min Rain = 0
KHA2 112323Z 19020KT 40/10 A2998 RMK A01 T04020103  RH  017%=      5-min Rain = 0
KHA2 112324Z 19020G25KT 40/10 A2998 RMK A01 T04020104  RH  017%=      5-min Rain = 0
KHA2 112325Z 18020KT 40/11 A2998 RMK A01 T04020105  RH  017%=      5-min Rain = 0
KHA2 112326Z 19020KT 40/11 A2998 RMK A01 T04030106  RH  017%=      5-min Rain = 0
KHA2 112327Z 19022KT 40/11 A2998 RMK A01 T04030106  RH  017%=      5-min Rain = 0
KHA2 112328Z 20023KT 40/11 A2998 RMK A01 T04020106  RH  017%=      5-min Rain = 0
KHA2 112329Z 19019G24KT 40/11 A2998 RMK A01 T04010107  RH  017%=      5-min Rain = 0
KHA2 112330Z 18020KT 40/11 A2998 RMK A01 T04010107  RH  017%=      5-min Rain = 0
KHA2 112331Z 18019KT 40/11 A2998 RMK A01 T04010105  RH  017%=      5-min Rain = 0
KHA2 112332Z 19020G25KT 40/11 A2998 RMK A01 T04000107  RH  017%=      5-min Rain = 0
KHA2 112333Z 19021KT 40/10 A2998 RMK A01 T04000103  RH  017%=      5-min Rain = 0
KHA2 112334Z 19021KT 40/10 A2998 RMK A01 T03990102  RH  017%=      5-min Rain = 0
KHA2 112335Z 19020G26KT 40/10 A2998 RMK A01 T03990103  RH  017%=      5-min Rain = 0
KHA2 112336Z 19022KT 40/10 A2998 RMK A01 T03980104  RH  017%=      5-min Rain = 0
KHA2 112337Z 19019G24KT 40/11 A2998 RMK A01 T03980105  RH  017%=      5-min Rain = 0
KHA2 112338Z 19024KT 40/10 A2998 RMK A01 T03980104  RH  017%=      5-min Rain = 0
KHA2 112339Z 20021KT 40/10 A2998 RMK A01 T04000100  RH  017%=      5-min Rain = 0
KHA2 112340Z 21019KT 40/09 A2998 RMK A01 T04020094  RH  016%=      5-min Rain = 0
KHA2 112341Z 20015KT 40/10 A2998 RMK A01 T04020096  RH  016%=      5-min Rain = 0
KHA2 112342Z 20020KT 40/10 A2998 RMK A01 T04030099  RH  016%=      5-min Rain = 0
KHA2 112343Z 21018G23KT 40/10 A2998 RMK A01 T04020099  RH  016%=      5-min Rain = 0
KHA2 112344Z 18017KT 40/10 A2998 RMK A01 T04010103  RH  017%=      5-min Rain = 0
KHA2 112345Z 18020G25KT 40/10 A2998 RMK A01 T04020102  RH  017%=      5-min Rain = 0
KHA2 112346Z 19018KT 40/10 A2998 RMK A01 T04000103  RH  017%=      5-min Rain = 0
KHA2 112347Z 19017KT 40/10 A2998 RMK A01 T04000104  RH  017%=      5-min Rain = 0
KHA2 112348Z 20021KT 40/10 A2998 RMK A01 T03990103  RH  017%=      5-min Rain = 0
KHA2 112349Z 20018KT 40/11 A2998 RMK A01 T03960105  RH  018%=      5-min Rain = 0
KHA2 112350Z 19018KT 40/10 A2998 RMK A01 T03960103  RH  017%=      5-min Rain = 0
KHA2 112351Z 19017KT 40/10 A2998 RMK A01 T03950104  RH  018%=      5-min Rain = 0
KHA2 112352Z 19020KT 39/11 A2998 RMK A01 T03940105  RH  018%=      5-min Rain = 0
KHA2 112353Z 19021G26KT 40/11 A2998 RMK A01 T03950105  RH  018%=      5-min Rain = 0
KHA2 112354Z 20018KT 39/10 A2998 RMK A01 T03930104  RH  018%=      5-min Rain = 0
KHA2 112355Z 19018KT 39/10 A2998 RMK A01 T03920103  RH  018%=      5-min Rain = 0
KHA2 112356Z 19019G24KT 39/10 A2998 RMK A01 T03900104  RH  018%=      5-min Rain = 0
KHA2 112357Z 18019KT 39/10 A2998 RMK A01 T03890104  RH  018%=      5-min Rain = 0
KHA2 112358Z 18017KT 39/10 A2998 RMK A01 T03870103  RH  018%=      5-min Rain = 0
KHA2 112359Z 18019KT 39/10 A2998 RMK A01 T03860104  RH  018%=      5-min Rain = 0
KHA2 120000Z 18022KT 39/10 A2998 RMK A01 T03850103  RH  018%=      5-min Rain = 0
KHA2 120001Z 18023KT 39/10 A2998 RMK A01 T03850103  RH  018%=      5-min Rain = 0
KHA2 120002Z 19020KT 38/10 A2998 RMK A01 T03840103  RH  018%=      5-min Rain = 0
KHA2 120003Z 19018KT 38/11 A2998 RMK A01 T03840105  RH  019%=      5-min Rain = 0
KHA2 120004Z 19015KT 38/11 A2998 RMK A01 T03840106  RH  019%=      5-min Rain = 0
KHA2 120005Z 19016G21KT 38/11 A2998 RMK A01 T03840105  RH  019%=      5-min Rain = 0
KHA2 120006Z 19020KT 38/10 A2998 RMK A01 T03840103  RH  019%=      5-min Rain = 0
KHA2 120007Z 19019KT 38/10 A2998 RMK A01 T03840103  RH  018%=      5-min Rain = 0
KHA2 120008Z 19017KT 39/10 A2998 RMK A01 T03850104  RH  018%=      5-min Rain = 0
KHA2 120009Z 18019KT 39/10 A2998 RMK A01 T03850104  RH  018%=      5-min Rain = 0
KHA2 120010Z 19018KT 39/11 A2998 RMK A01 T03870105  RH  018%=      5-min Rain = 0
KHA2 120011Z 19020KT 39/10 A2998 RMK A01 T03880104  RH  018%=      5-min Rain = 0
KHA2 120012Z 18019KT 39/11 A2998 RMK A01 T03890106  RH  018%=      5-min Rain = 0
KHA2 120013Z 18018KT 39/11 A2998 RMK A01 T03890108  RH  019%=      5-min Rain = 0
KHA2 120014Z 18018KT 39/11 A2998 RMK A01 T03890110  RH  019%=      5-min Rain = 0
KHA2 120015Z 18019KT 39/11 A2998 RMK A01 T03880111  RH  019%=      5-min Rain = 0
KHA2 120016Z 18016G21KT 39/11 A2998 RMK A01 T03870112  RH  019%=      5-min Rain = 0
KHA2 120017Z 19019KT 39/11 A2998 RMK A01 T03870108  RH  019%=      5-min Rain = 0
KHA2 120018Z 19015KT 39/11 A2998 RMK A01 T03880109  RH  019%=      5-min Rain = 0
KHA2 120019Z 19016KT 39/11 A2998 RMK A01 T03890110  RH  019%=      5-min Rain = 0
KHA2 120020Z 19017KT 39/11 A2998 RMK A01 T03890110  RH  019%=      5-min Rain = 0
KHA2 120021Z 19019G25KT 39/11 A2998 RMK A01 T03880110  RH  019%=      5-min Rain = 0
KHA2 120022Z 18022KT 39/11 A2998 RMK A01 T03870108  RH  019%=      5-min Rain = 0
KHA2 120023Z 18020KT 39/11 A2998 RMK A01 T03850108  RH  019%=      5-min Rain = 0
KHA2 120024Z 19019G24KT 38/11 A2998 RMK A01 T03840108  RH  019%=      5-min Rain = 0
KHA2 120025Z 19020KT 38/11 A2998 RMK A01 T03830107  RH  019%=      5-min Rain = 0
KHA2 120026Z 18018KT 38/11 A2998 RMK A01 T03830107  RH  019%=      5-min Rain = 0
KHA2 120027Z 17020KT 38/11 A2998 RMK A01 T03810107  RH  019%=      5-min Rain = 0
KHA2 120028Z 18020KT 38/11 A2998 RMK A01 T03800107  RH  019%=      5-min Rain = 0
KHA2 120029Z 18018KT 38/11 A2998 RMK A01 T03800107  RH  019%=      5-min Rain = 0
KHA2 120030Z 18020KT 38/11 A2998 RMK A01 T03790107  RH  020%=      5-min Rain = 0
KHA2 120031Z 19016KT 38/11 A2998 RMK A01 T03790107  RH  020%=      5-min Rain = 0
KHA2 120032Z 19016KT 38/11 A2998 RMK A01 T03790107  RH  020%=      5-min Rain = 0
KHA2 120033Z 19016G21KT 38/11 A2998 RMK A01 T03780109  RH  020%=      5-min Rain = 0
KHA2 120034Z 19019KT 38/11 A2998 RMK A01 T03780108  RH  020%=      5-min Rain = 0
KHA2 120035Z 19017KT 38/11 A2998 RMK A01 T03770108  RH  020%=      5-min Rain = 0
KHA2 120036Z 18016KT 38/11 A2998 RMK A01 T03770109  RH  020%=      5-min Rain = 0
KHA2 120037Z 19018KT 38/11 A2998 RMK A01 T03760109  RH  020%=      5-min Rain = 0
KHA2 120038Z 18017KT 38/11 A2998 RMK A01 T03760109  RH  020%=      5-min Rain = 0
KHA2 120039Z 18020KT 38/11 A2998 RMK A01 T03760109  RH  020%=      5-min Rain = 0
KHA2 120040Z 18019G24KT 38/11 A2998 RMK A01 T03760108  RH  020%=      5-min Rain = 0
KHA2 120041Z 18020KT 38/11 A2998 RMK A01 T03760108  RH  020%=      5-min Rain = 0
KHA2 120042Z 18020KT 38/11 A2998 RMK A01 T03760108  RH  020%=      5-min Rain = 0
KHA2 120043Z 18015KT 38/11 A2998 RMK A01 T03760108  RH  020%=      5-min Rain = 0
KHA2 120044Z 18016KT 38/11 A2999 RMK A01 T03750109  RH  020%=      5-min Rain = 0
KHA2 120045Z 18019KT 38/11 A2999 RMK A01 T03750109  RH  020%=      5-min Rain = 0
KHA2 120046Z 18019KT 38/11 A2999 RMK A01 T03750108  RH  020%=      5-min Rain = 0
KHA2 120047Z 18019KT 38/11 A2999 RMK A01 T03760107  RH  020%=      5-min Rain = 0
KHA2 120048Z 19018KT 38/11 A2999 RMK A01 T03770107  RH  020%=      5-min Rain = 0
KHA2 120049Z 18016KT 38/11 A2999 RMK A01 T03780108  RH  020%=      5-min Rain = 0
KHA2 120050Z 18018KT 38/11 A2999 RMK A01 T03780109  RH  020%=      5-min Rain = 0
KHA2 120051Z 19018KT 38/11 A2999 RMK A01 T03790109  RH  020%=      5-min Rain = 0
KHA2 120052Z 19017KT 38/11 A2999 RMK A01 T03790109  RH  020%=      5-min Rain = 0
KHA2 120053Z 18014KT 38/11 A2999 RMK A01 T03800111  RH  020%=      5-min Rain = 0
KHA2 120054Z 19015G20KT 38/11 A2999 RMK A01 T03790111  RH  020%=      5-min Rain = 0
KHA2 120055Z 19019KT 38/11 A2999 RMK A01 T03800110  RH  020%=      5-min Rain = 0
KHA2 120056Z 18019KT 38/11 A2999 RMK A01 T03790108  RH  020%=      5-min Rain = 0
KHA2 120057Z 18015KT 38/11 A2999 RMK A01 T03800110  RH  020%=      5-min Rain = 0
KHA2 120058Z 18017G22KT 38/11 A2999 RMK A01 T03780110  RH  020%=      5-min Rain = 0
KHA2 120059Z 19018KT 38/11 A2999 RMK A01 T03780109  RH  020%=      5-min Rain = 0
KHA2 120100Z 19018KT 38/11 A2999 RMK A01 T03780108  RH  020%=      5-min Rain = 0
KHA2 120101Z 19018KT 38/11 A2999 RMK A01 T03780107  RH  020%=      5-min Rain = 0
KHA2 120102Z 19019KT 38/11 A2999 RMK A01 T03780108  RH  020%=      5-min Rain = 0
KHA2 120103Z 19018KT 38/11 A2999 RMK A01 T03790107  RH  020%=      5-min Rain = 0
KHA2 120104Z 18014KT 38/11 A2999 RMK A01 T03790108  RH  020%=      5-min Rain = 0
KHA2 120105Z 19014G19KT 38/11 A2999 RMK A01 T03780109  RH  020%=      5-min Rain = 0
KHA2 120106Z 19018KT 38/11 A2999 RMK A01 T03780107  RH  020%=      5-min Rain = 0
KHA2 120107Z 18016KT 38/11 A2999 RMK A01 T03780107  RH  020%=      5-min Rain = 0
KHA2 120108Z 18018G23KT 38/11 A2999 RMK A01 T03780107  RH  020%=      5-min Rain = 0
KHA2 120109Z 19017KT 38/11 A2999 RMK A01 T03770107  RH  020%=      5-min Rain = 0
KHA2 120110Z 18017KT 38/11 A2999 RMK A01 T03770107  RH  020%=      5-min Rain = 0
KHA2 120111Z 18018KT 38/11 A2999 RMK A01 T03760107  RH  020%=      5-min Rain = 0
KHA2 120112Z 18017KT 38/11 A2999 RMK A01 T03760106  RH  020%=      5-min Rain = 0
KHA2 120113Z 18018KT 38/11 A2999 RMK A01 T03760106  RH  020%=      5-min Rain = 0
KHA2 120114Z 18017KT 38/11 A2999 RMK A01 T03750106  RH  020%=      5-min Rain = 0
KHA2 120115Z 18015KT 38/11 A2999 RMK A01 T03750106  RH  020%=      5-min Rain = 0
KHA2 120116Z 19015KT 37/11 A2999 RMK A01 T03740107  RH  020%=      5-min Rain = 0
KHA2 120117Z 19015KT 37/11 A2999 RMK A01 T03730107  RH  020%=      5-min Rain = 0
KHA2 120118Z 19015KT 37/11 A2999 RMK A01 T03720107  RH  020%=      5-min Rain = 0
KHA2 120119Z 19014KT 37/11 A2999 RMK A01 T03720106  RH  020%=      5-min Rain = 0
KHA2 120120Z 19015KT 37/11 A2999 RMK A01 T03720107  RH  020%=      5-min Rain = 0
KHA2 120121Z 18017KT 37/11 A2999 RMK A01 T03720106  RH  020%=      5-min Rain = 0
KHA2 120122Z 19015KT 37/11 A2999 RMK A01 T03720106  RH  020%=      5-min Rain = 0
KHA2 120123Z 18016KT 37/11 A2999 RMK A01 T03720106  RH  020%=      5-min Rain = 0
KHA2 120124Z 18017KT 37/11 A2999 RMK A01 T03710105  RH  020%=      5-min Rain = 0
KHA2 120125Z 19015KT 37/11 A2999 RMK A01 T03710107  RH  020%=      5-min Rain = 0
KHA2 120126Z 18015KT 37/11 A2999 RMK A01 T03700106  RH  020%=      5-min Rain = 0
KHA2 120127Z 19017KT 37/11 A2999 RMK A01 T03690106  RH  020%=      5-min Rain = 0
KHA2 120128Z 19015KT 37/11 A2999 RMK A01 T03690106  RH  020%=      5-min Rain = 0
KHA2 120129Z 18014KT 37/11 A2999 RMK A01 T03680106  RH  021%=      5-min Rain = 0
KHA2 120130Z 18015KT 37/11 A2999 RMK A01 T03670106  RH  021%=      5-min Rain = 0
KHA2 120131Z 19015KT 37/11 A2999 RMK A01 T03660106  RH  021%=      5-min Rain = 0
KHA2 120132Z 18014KT 37/11 A2999 RMK A01 T03660107  RH  021%=      5-min Rain = 0
KHA2 120133Z 18015KT 37/11 A2999 RMK A01 T03650108  RH  021%=      5-min Rain = 0
KHA2 120134Z 18014KT 36/11 A2999 RMK A01 T03640107  RH  021%=      5-min Rain = 0
KHA2 120135Z 18013KT 36/11 A2999 RMK A01 T03630107  RH  021%=      5-min Rain = 0
KHA2 120136Z 18015KT 36/11 A2999 RMK A01 T03620108  RH  021%=      5-min Rain = 0
KHA2 120137Z 18015KT 36/11 A2999 RMK A01 T03620107  RH  021%=      5-min Rain = 0
KHA2 120138Z 18015KT 36/11 A2999 RMK A01 T03620108  RH  022%=      5-min Rain = 0
KHA2 120139Z 18015KT 36/11 A2999 RMK A01 T03610109  RH  022%=      5-min Rain = 0
KHA2 120140Z 18014KT 36/11 A2999 RMK A01 T03600109  RH  022%=      5-min Rain = 0
KHA2 120141Z 18015KT 36/11 A2999 RMK A01 T03590109  RH  022%=      5-min Rain = 0
KHA2 120142Z 18016KT 36/11 A2999 RMK A01 T03590108  RH  022%=      5-min Rain = 0
KHA2 120143Z 18016KT 36/11 A2999 RMK A01 T03590108  RH  022%=      5-min Rain = 0
KHA2 120144Z 18017KT 36/11 A2999 RMK A01 T03590106  RH  022%=      5-min Rain = 0
KHA2 120145Z 18016KT 36/11 A2999 RMK A01 T03600107  RH  022%=      5-min Rain = 0
KHA2 120146Z 18015KT 36/11 A2999 RMK A01 T03590107  RH  022%=      5-min Rain = 0
KHA2 120147Z 18015KT 36/11 A2999 RMK A01 T03580107  RH  022%=      5-min Rain = 0
KHA2 120148Z 18015KT 36/11 A2999 RMK A01 T03570106  RH  022%=      5-min Rain = 0
KHA2 120149Z 18014KT 36/11 A2999 RMK A01 T03560107  RH  022%=      5-min Rain = 0
KHA2 120150Z 18014KT 36/11 A2999 RMK A01 T03560107  RH  022%=      5-min Rain = 0
KHA2 120151Z 18014KT 35/11 A2999 RMK A01 T03540106  RH  022%=      5-min Rain = 0
KHA2 120152Z 18014KT 35/11 A2999 RMK A01 T03530106  RH  022%=      5-min Rain = 0
KHA2 120153Z 18013KT 35/11 A2999 RMK A01 T03530107  RH  022%=      5-min Rain = 0
KHA2 120154Z 18013KT 35/11 A2999 RMK A01 T03520107  RH  023%=      5-min Rain = 0
KHA2 120155Z 18013KT 35/11 A2999 RMK A01 T03510106  RH  023%=      5-min Rain = 0
KHA2 120156Z 18012KT 35/11 A2999 RMK A01 T03510106  RH  023%=      5-min Rain = 0
KHA2 120157Z 18012KT 35/11 A2999 RMK A01 T03500107  RH  023%=      5-min Rain = 0
KHA2 120158Z 18011KT 35/11 A2999 RMK A01 T03480107  RH  023%=      5-min Rain = 0
KHA2 120159Z 18012KT 35/11 A2999 RMK A01 T03470106  RH  023%=      5-min Rain = 0
KHA2 120200Z 18012KT 35/11 A2999 RMK A01 T03460106  RH  023%=      5-min Rain = 0
KHA2 120201Z 18012KT 35/11 A2999 RMK A01 T03450107  RH  024%=      5-min Rain = 0
KHA2 120202Z 18011KT 34/11 A2999 RMK A01 T03440106  RH  024%=      5-min Rain = 0
KHA2 120203Z 18011KT 34/11 A2999 RMK A01 T03430106  RH  024%=      5-min Rain = 0
KHA2 120204Z 18012KT 34/11 A2999 RMK A01 T03420106  RH  024%=      5-min Rain = 0
KHA2 120205Z 18011KT 34/11 A2999 RMK A01 T03410106  RH  024%=      5-min Rain = 0
KHA2 120206Z 18011KT 34/11 A2999 RMK A01 T03400106  RH  024%=      5-min Rain = 0
KHA2 120207Z 19012KT 34/11 A2999 RMK A01 T03400105  RH  024%=      5-min Rain = 0
KHA2 120208Z 19012KT 34/11 A2999 RMK A01 T03410105  RH  024%=      5-min Rain = 0
KHA2 120209Z 19012KT 34/11 A2999 RMK A01 T03410105  RH  024%=      5-min Rain = 0
KHA2 120210Z 18012KT 34/11 A2999 RMK A01 T03420105  RH  024%=      5-min Rain = 0
KHA2 120211Z 19012KT 34/10 A2999 RMK A01 T03410104  RH  024%=      5-min Rain = 0
KHA2 120212Z 18012KT 34/10 A2999 RMK A01 T03410104  RH  024%=      5-min Rain = 0
KHA2 120213Z 18012KT 34/10 A2999 RMK A01 T03410103  RH  024%=      5-min Rain = 0
KHA2 120214Z 18012KT 34/10 A2999 RMK A01 T03410103  RH  023%=      5-min Rain = 0
KHA2 120215Z 18012KT 34/10 A2999 RMK A01 T03410103  RH  023%=      5-min Rain = 0
KHA2 120216Z 19012KT 34/10 A2999 RMK A01 T03410103  RH  023%=      5-min Rain = 0
KHA2 120217Z 18012KT 34/10 A2999 RMK A01 T03400103  RH  023%=      5-min Rain = 0
KHA2 120218Z 19012KT 34/10 A2999 RMK A01 T03400103  RH  024%=      5-min Rain = 0
KHA2 120219Z 19012KT 34/10 A2999 RMK A01 T03380103  RH  024%=      5-min Rain = 0
KHA2 120220Z 18012KT 34/10 A2999 RMK A01 T03370102  RH  024%=      5-min Rain = 0
KHA2 120221Z 18012KT 34/10 A30 RMK A01 T03360103  RH  024%=      5-min Rain = 0
KHA2 120222Z 18012KT 34/10 A30 RMK A01 T03350103  RH  024%=      5-min Rain = 0
KHA2 120223Z 18012KT 33/10 A30 RMK A01 T03330103  RH  024%=      5-min Rain = 0
KHA2 120224Z 18012KT 33/10 A30 RMK A01 T03330103  RH  024%=      5-min Rain = 0
KHA2 120225Z 18011KT 33/10 A30 RMK A01 T03310103  RH  025%=      5-min Rain = 0
KHA2 120226Z 18011KT 33/10 A30 RMK A01 T03300103  RH  025%=      5-min Rain = 0
KHA2 120227Z 18011KT 33/10 A30 RMK A01 T03300103  RH  025%=      5-min Rain = 0
KHA2 120228Z 18012KT 33/10 A30 RMK A01 T03290102  RH  025%=      5-min Rain = 0
KHA2 120229Z 18011KT 33/10 A30 RMK A01 T03290103  RH  025%=      5-min Rain = 0
KHA2 120230Z 18011KT 33/10 A30 RMK A01 T03280103  RH  025%=      5-min Rain = 0
KHA2 120231Z 18012KT 33/10 A30 RMK A01 T03280103  RH  025%=      5-min Rain = 0
KHA2 120232Z 18011KT 33/10 A3001 RMK A01 T03260103  RH  025%=      5-min Rain = 0
KHA2 120233Z 18011KT 33/10 A3001 RMK A01 T03260103  RH  025%=      5-min Rain = 0
KHA2 120234Z 18011KT 33/10 A3001 RMK A01 T03250103  RH  026%=      5-min Rain = 0
KHA2 120235Z 18011KT 33/10 A3001 RMK A01 T03250103  RH  026%=      5-min Rain = 0
KHA2 120236Z 18011KT 32/10 A3001 RMK A01 T03240104  RH  026%=      5-min Rain = 0
KHA2 120237Z 18011KT 32/10 A3001 RMK A01 T03230103  RH  026%=      5-min Rain = 0
KHA2 120238Z 18010KT 32/10 A3001 RMK A01 T03210103  RH  026%=      5-min Rain = 0
KHA2 120239Z 18010KT 32/10 A3001 RMK A01 T03200103  RH  026%=      5-min Rain = 0
KHA2 120240Z 18010KT 32/10 A3001 RMK A01 T03190103  RH  027%=      5-min Rain = 0
KHA2 120241Z 17010KT 32/10 A3001 RMK A01 T03190104  RH  027%=      5-min Rain = 0
KHA2 120242Z 17009KT 32/10 A3002 RMK A01 T03170104  RH  027%=      5-min Rain = 0
KHA2 120243Z 17009KT 32/11 A3002 RMK A01 T03170105  RH  027%=      5-min Rain = 0
KHA2 120244Z 17009KT 32/11 A3002 RMK A01 T03160106  RH  027%=      5-min Rain = 0
KHA2 120245Z 17009KT 32/11 A3002 RMK A01 T03150106  RH  028%=      5-min Rain = 0
KHA2 120246Z 17008KT 31/11 A3002 RMK A01 T03140106  RH  028%=      5-min Rain = 0
KHA2 120247Z 17009KT 31/11 A3002 RMK A01 T03130107  RH  028%=      5-min Rain = 0
KHA2 120248Z 17009KT 31/11 A3002 RMK A01 T03120107  RH  028%=      5-min Rain = 0
KHA2 120249Z 17009KT 31/11 A3002 RMK A01 T03110108  RH  028%=      5-min Rain = 0
KHA2 120250Z 17008KT 31/11 A3002 RMK A01 T03120108  RH  029%=      5-min Rain = 0
KHA2 120251Z 17009KT 31/11 A3002 RMK A01 T03120109  RH  029%=      5-min Rain = 0
KHA2 120252Z 17009KT 31/11 A3002 RMK A01 T03120110  RH  029%=      5-min Rain = 0
KHA2 120253Z 18009KT 31/11 A3002 RMK A01 T03110110  RH  029%=      5-min Rain = 0
KHA2 120254Z 18009KT 31/11 A3002 RMK A01 T03100110  RH  029%=      5-min Rain = 0
KHA2 120255Z 18009KT 31/11 A3002 RMK A01 T03090110  RH  029%=      5-min Rain = 0
KHA2 120256Z 18009KT 31/11 A3002 RMK A01 T03090110  RH  029%=      5-min Rain = 0
KHA2 120257Z 18008KT 31/11 A3002 RMK A01 T03090110  RH  029%=      5-min Rain = 0
KHA2 120258Z 18008KT 31/11 A3002 RMK A01 T03090110  RH  029%=      5-min Rain = 0
KHA2 120259Z 18009KT 31/11 A3002 RMK A01 T03090110  RH  029%=      5-min Rain = 0
KHA2 120300Z 18009KT 31/11 A3002 RMK A01 T03100111  RH  029%=      5-min Rain = 0
KHA2 120301Z 18008KT 31/11 A3002 RMK A01 T03100111  RH  029%=      5-min Rain = 0
KHA2 120302Z 18008KT 31/11 A3002 RMK A01 T03090111  RH  030%=      5-min Rain = 0
KHA2 120303Z 18008KT 31/11 A3002 RMK A01 T03080111  RH  030%=      5-min Rain = 0
KHA2 120304Z 18009KT 31/11 A3002 RMK A01 T03080111  RH  030%=      5-min Rain = 0
KHA2 120305Z 18008KT 31/11 A3002 RMK A01 T03080111  RH  030%=      5-min Rain = 0
KHA2 120306Z 18008KT 31/11 A3002 RMK A01 T03070112  RH  030%=      5-min Rain = 0
KHA2 120307Z 18008KT 31/11 A3002 RMK A01 T03070111  RH  030%=      5-min Rain = 0
KHA2 120308Z 18008KT 31/11 A3002 RMK A01 T03060112  RH  030%=      5-min Rain = 0
KHA2 120309Z 18007KT 31/11 A3003 RMK A01 T03060112  RH  030%=      5-min Rain = 0
KHA2 120310Z 18007KT 31/11 A3003 RMK A01 T03050112  RH  030%=      5-min Rain = 0
KHA2 120311Z 18006KT 30/11 A3003 RMK A01 T03040112  RH  031%=      5-min Rain = 0
KHA2 120312Z 18005KT 30/11 A3003 RMK A01 T03030112  RH  031%=      5-min Rain = 0
KHA2 120313Z 18004KT 30/11 A3003 RMK A01 T03030112  RH  031%=      5-min Rain = 0
KHA2 120314Z 18003KT 30/11 A3004 RMK A01 T03030111  RH  031%=      5-min Rain = 0
KHA2 120315Z 22001KT 30/11 A3004 RMK A01 T03030111  RH  031%=      5-min Rain = 0
KHA2 120316Z 30002KT 30/11 A3004 RMK A01 T03030110  RH  030%=      5-min Rain = 0
KHA2 120317Z 31004KT 30/11 A3004 RMK A01 T03040110  RH  030%=      5-min Rain = 0
KHA2 120318Z 31008KT 30/11 A3005 RMK A01 T03040110  RH  030%=      5-min Rain = 0
KHA2 120319Z 30012KT 31/11 A3005 RMK A01 T03050110  RH  030%=      5-min Rain = 0
KHA2 120320Z 32013KT 31/11 A3005 RMK A01 T03080107  RH  029%=      5-min Rain = 0
KHA2 120321Z 33013KT 31/10 A3005 RMK A01 T03100104  RH  028%=      5-min Rain = 0
KHA2 120322Z 34011KT 31/10 A3005 RMK A01 T03110104  RH  028%=      5-min Rain = 0
KHA2 120323Z 35012KT 31/10 A3005 RMK A01 T03120103  RH  028%=      5-min Rain = 0
KHA2 120324Z 35010KT 32/10 A3005 RMK A01 T03150102  RH  027%=      5-min Rain = 0
KHA2 120325Z 33010KT 32/10 A3005 RMK A01 T03190103  RH  026%=      5-min Rain = 0
KHA2 120326Z 32007KT 32/10 A3005 RMK A01 T03200103  RH  026%=      5-min Rain = 0
KHA2 120327Z 29007KT 32/10 A3006 RMK A01 T03190103  RH  026%=      5-min Rain = 0
KHA2 120328Z 29009KT 32/10 A3006 RMK A01 T03210102  RH  026%=      5-min Rain = 0
KHA2 120329Z 30008KT 33/10 A3006 RMK A01 T03270103  RH  025%=      5-min Rain = 0
KHA2 120330Z 30009KT 33/10 A3006 RMK A01 T03310103  RH  025%=      5-min Rain = 0
KHA2 120331Z 31011KT 33/10 A3006 RMK A01 T03330103  RH  024%=      5-min Rain = 0
KHA2 120332Z 32015KT 34/10 A3006 RMK A01 T03350102  RH  024%=      5-min Rain = 0
KHA2 120333Z 30015KT 34/10 A3006 RMK A01 T03380100  RH  023%=      5-min Rain = 0
KHA2 120334Z 30012KT 34/10 A3007 RMK A01 T03430097  RH  022%=      5-min Rain = 0
KHA2 120335Z 27013KT 35/10 A3008 RMK A01 T03470099  RH  022%=      5-min Rain = 0
KHA2 120336Z 28006KT 35/10 A3008 RMK A01 T03480097  RH  022%=      5-min Rain = 0
KHA2 120337Z 25007KT 35/10 A3008 RMK A01 T03500097  RH  021%=      5-min Rain = 0
KHA2 120338Z 24006G11KT 35/10 A3008 RMK A01 T03500098  RH  021%=      5-min Rain = 0
KHA2 120339Z 27008KT 35/10 A3008 RMK A01 T03500099  RH  022%=      5-min Rain = 0
KHA2 120340Z 30010KT 35/10 A3008 RMK A01 T03480099  RH  022%=      5-min Rain = 0
KHA2 120341Z 28010KT 35/10 A3009 RMK A01 T03480100  RH  022%=      5-min Rain = 0
KHA2 120342Z 28011KT 35/10 A3009 RMK A01 T03470100  RH  022%=      5-min Rain = 0
KHA2 120343Z 30011KT 35/10 A3009 RMK A01 T03480099  RH  022%=      5-min Rain = 0
KHA2 120344Z 30010KT 35/10 A3009 RMK A01 T03480101  RH  022%=      5-min Rain = 0
KHA2 120345Z 29009KT 35/10 A3009 RMK A01 T03470101  RH  022%=      5-min Rain = 0
KHA2 120346Z 30008KT 35/10 A3009 RMK A01 T03450104  RH  023%=      5-min Rain = 0
KHA2 120347Z 30007KT 34/11 A3009 RMK A01 T03430111  RH  024%=      5-min Rain = 0
KHA2 120348Z 30008KT 34/12 A301 RMK A01 T03410121  RH  026%=      5-min Rain = 0
KHA2 120349Z 30012KT 34/13 A301 RMK A01 T03380130  RH  028%=      5-min Rain = 0
KHA2 120350Z 32019G24KT 34/13 A3011 RMK A01 T03350133  RH  029%=      5-min Rain = 0
KHA2 120351Z 34022G32KT 33/13 A301 RMK A01 T03300130  RH  030%=      5-min Rain = 0
KHA2 120352Z 36028KT 32/13 A301 RMK A01 T03240131  RH  031%=      5-min Rain = 0
KHA2 120353Z 00023KT 32/13 A3011 RMK A01 T03190132  RH  032%=      5-min Rain = 0
KHA2 120354Z 01026KT 32/13 A3011 RMK A01 T03160132  RH  033%=      5-min Rain = 0
KHA2 120355Z 01028KT 32/13 A3011 RMK A01 T03150130  RH  032%=      5-min Rain = 0
KHA2 120356Z 00023KT 31/13 A3011 RMK A01 T03130132  RH  033%=      5-min Rain = 0
KHA2 120357Z 36021KT 31/13 A3012 RMK A01 T03090129  RH  033%=      5-min Rain = 0
KHA2 120358Z 35018KT 31/13 A3011 RMK A01 T03080131  RH  034%=      5-min Rain = 0
KHA2 120359Z 00018G24KT 31/13 A3011 RMK A01 T03050133  RH  035%=      5-min Rain = 0
KHA2 120400Z 01023KT 30/13 A3011 RMK A01 T03040126  RH  033%=      5-min Rain = 0
KHA2 120401Z 02026KT 31/12 A3011 RMK A01 T03060123  RH  033%=      5-min Rain = 0
KHA2 120402Z 02022G27KT 31/12 A3011 RMK A01 T03080122  RH  032%=      5-min Rain = 0
KHA2 120403Z 01018KT 31/12 A3011 RMK A01 T03090123  RH  032%=      5-min Rain = 0
KHA2 120404Z 00015KT 31/12 A3011 RMK A01 T03090124  RH  032%=      5-min Rain = 0
KHA2 120405Z 00024KT 31/12 A3011 RMK A01 T03090122  RH  032%=      5-min Rain = 0
KHA2 120406Z 01020G28KT 31/12 A3012 RMK A01 T03100116  RH  030%=      5-min Rain = 0
KHA2 120407Z 01028G33KT 31/12 A3011 RMK A01 T03130118  RH  030%=      5-min Rain = 0
KHA2 120408Z 01026KT 31/12 A3012 RMK A01 T03140118  RH  030%=      5-min Rain = 0
KHA2 120409Z 01018KT 31/12 A3012 RMK A01 T03130119  RH  031%=      5-min Rain = 0
KHA2 120410Z 02014KT 31/12 A3012 RMK A01 T03110121  RH  031%=      5-min Rain = 0
KHA2 120411Z 02018G24KT 31/12 A3012 RMK A01 T03100124  RH  032%=      5-min Rain = 0
KHA2 120412Z 02017KT 31/13 A3012 RMK A01 T03080125  RH  032%=      5-min Rain = 0
KHA2 120413Z 35016G24KT 31/12 A3012 RMK A01 T03060124  RH  033%=      5-min Rain = 0
KHA2 120414Z 36021KT 30/12 A3012 RMK A01 T03040124  RH  033%=      5-min Rain = 0
KHA2 120415Z 01021KT 30/12 A3012 RMK A01 T03020122  RH  033%=      5-min Rain = 0
KHA2 120416Z 01019KT 30/12 A3012 RMK A01 T03020120  RH  033%=      5-min Rain = 0
KHA2 120417Z 01017KT 30/12 A3012 RMK A01 T03020121  RH  033%=      5-min Rain = 0
KHA2 120418Z 36019KT 30/12 A3012 RMK A01 T03010122  RH  033%=      5-min Rain = 0
KHA2 120419Z 36021KT 30/12 A3012 RMK A01 T03010117  RH  032%=      5-min Rain = 0
KHA2 120420Z 00024G29KT 30/12 A3012 RMK A01 T03030116  RH  031%=      5-min Rain = 0
KHA2 120421Z 00024KT 31/12 A3012 RMK A01 T03050115  RH  031%=      5-min Rain = 0
KHA2 120422Z 36023G28KT 31/12 A3012 RMK A01 T03050116  RH  031%=      5-min Rain = 0
KHA2 120423Z 00021KT 31/12 A3012 RMK A01 T03060117  RH  031%=      5-min Rain = 0
KHA2 120424Z 00021KT 31/12 A3012 RMK A01 T03050117  RH  031%=      5-min Rain = 0
KHA2 120425Z 01017KT 30/11 A3012 RMK A01 T03040114  RH  031%=      5-min Rain = 0
KHA2 120426Z 00013KT 30/12 A3012 RMK A01 T03040115  RH  031%=      5-min Rain = 0
KHA2 120427Z 01017KT 30/11 A3012 RMK A01 T03040114  RH  031%=      5-min Rain = 0
KHA2 120428Z 01016KT 30/12 A3012 RMK A01 T03040115  RH  031%=      5-min Rain = 0
KHA2 120429Z 00012KT 31/12 A3012 RMK A01 T03050115  RH  031%=      5-min Rain = 0
KHA2 120430Z 01015KT 31/12 A3011 RMK A01 T03050116  RH  031%=      5-min Rain = 0
KHA2 120431Z 36012KT 30/12 A3011 RMK A01 T03040116  RH  031%=      5-min Rain = 0
KHA2 120432Z 01013KT 30/12 A3011 RMK A01 T03030117  RH  032%=      5-min Rain = 0
KHA2 120433Z 01013KT 30/12 A3011 RMK A01 T03010118  RH  032%=      5-min Rain = 0
KHA2 120434Z 01012KT 30/12 A3011 RMK A01 T02990118  RH  033%=      5-min Rain = 0
KHA2 120435Z 01011KT 30/12 A3011 RMK A01 T02980119  RH  033%=      5-min Rain = 0
KHA2 120436Z 01013KT 30/12 A3011 RMK A01 T02970120  RH  034%=      5-min Rain = 0
KHA2 120437Z 00017KT 30/12 A301 RMK A01 T02970121  RH  034%=      5-min Rain = 0
KHA2 120438Z 01015KT 30/12 A301 RMK A01 T02970122  RH  034%=      5-min Rain = 0
KHA2 120439Z 01016KT 30/12 A301 RMK A01 T02980123  RH  034%=      5-min Rain = 0
KHA2 120440Z 01013KT 30/12 A301 RMK A01 T02970122  RH  034%=      5-min Rain = 0
KHA2 120441Z 02014KT 30/12 A301 RMK A01 T02970123  RH  034%=      5-min Rain = 0
KHA2 120442Z 02013KT 30/13 A301 RMK A01 T02970125  RH  035%=      5-min Rain = 0
KHA2 120443Z 02013KT 30/13 A301 RMK A01 T02970126  RH  035%=      5-min Rain = 0
KHA2 120444Z 01015G20KT 30/12 A301 RMK A01 T02960122  RH  034%=      5-min Rain = 0
KHA2 120445Z 01017KT 30/12 A301 RMK A01 T02970117  RH  033%=      5-min Rain = 0
KHA2 120446Z 02015KT 30/12 A301 RMK A01 T02990119  RH  033%=      5-min Rain = 0
KHA2 120447Z 02013KT 30/12 A301 RMK A01 T02990118  RH  033%=      5-min Rain = 0
KHA2 120448Z 01012KT 30/12 A301 RMK A01 T03000118  RH  033%=      5-min Rain = 0
KHA2 120449Z 01015KT 30/12 A301 RMK A01 T02990117  RH  033%=      5-min Rain = 0
KHA2 120450Z 01014KT 30/12 A301 RMK A01 T03000118  RH  032%=      5-min Rain = 0
KHA2 120451Z 01013KT 30/12 A301 RMK A01 T03010119  RH  033%=      5-min Rain = 0
KHA2 120452Z 02011KT 30/12 A301 RMK A01 T03010121  RH  033%=      5-min Rain = 0
KHA2 120453Z 02012KT 30/12 A301 RMK A01 T03010123  RH  034%=      5-min Rain = 0
KHA2 120454Z 03014KT 30/13 A3009 RMK A01 T03000130  RH  035%=      5-min Rain = 0
KHA2 120455Z 02015KT 30/13 A3009 RMK A01 T03000134  RH  036%=      5-min Rain = 0
KHA2 120456Z 02014KT 30/14 A3009 RMK A01 T02990136  RH  037%=      5-min Rain = 0
KHA2 120457Z 02014KT 30/14 A3009 RMK A01 T02990137  RH  037%=      5-min Rain = 0
KHA2 120458Z 02014KT 30/14 A3009 RMK A01 T02980136  RH  037%=      5-min Rain = 0
KHA2 120459Z 02016KT 30/14 A3009 RMK A01 T02980136  RH  037%=      5-min Rain = 0

Page generated in 0.0813 seconds.